KLM888 VHHH-EHAM
Flight info
| Callsign | KLM888 |
|---|---|
| Flight time | N/A |
| Altitude | 30100 |
| Route | BEKOL A461 SHL W22 TEPID W24 OSNOV G586 QP B330 ELKAL W179 WLY/K0932S0980 W179 IGNAK/K0935S0950 W179 WFX/K0930S0980 W179 OMBON W195 VIDEK/K0933S0950 W195 LAXAL/K0928S0980 W195 IDOPA W197 ANDIM B215 IBANO G470 AKLAS W192 FKG A368 SALMO/K0904S1040 A368 SARIN/K0900F340 DCT RELGE DCT GASBI/N0490F340 DCT LEYLA/N0491F360 DCT LAGAS DCT SARPI UM10 OLUPO UL851 KARDE UN644 INB UL746 ODERO DCT OPT DCT ALOXU DCT TUVNU DCT FOGRE DCT PEPIK DCT LIKSA DCT ELMEK DCT VEXIL DCT KATCE DCT APEBE DCT NORKU |
| Aircraft | B77W/H-SDE1E2E3FGHIJ2J3J4J5M1RWXY/LB1D1 |
Departure
| Time | N/A |
|---|---|
| Airport | Hong Kong International Airport (VHHH) |
Arrival
| Time | 2026-05-05 11:21 |
|---|---|
| Airport | Amsterdam Airport Schiphol (EHAM) |
| Time | Latitude | Longitude | Altitude | Speed | Heading |
|---|---|---|---|---|---|
| 2026-05-05 04:09 | 46.91828 | 77.52687 | 30383 ft | 485 kts | 271° |
| 2026-05-05 04:09 | 46.91692 | 77.42840 | 30385 ft | 484 kts | 271° |
| 2026-05-05 04:10 | 46.91548 | 77.33054 | 30387 ft | 484 kts | 271° |
| 2026-05-05 04:10 | 46.91395 | 77.23196 | 30389 ft | 485 kts | 271° |
| 2026-05-05 04:11 | 46.91233 | 77.13342 | 30392 ft | 485 kts | 270° |
| 2026-05-05 04:11 | 46.91063 | 77.03475 | 30394 ft | 485 kts | 270° |
| 2026-05-05 04:12 | 46.90884 | 76.93619 | 30396 ft | 485 kts | 270° |
| 2026-05-05 04:12 | 46.90697 | 76.83758 | 30407 ft | 485 kts | 270° |
| 2026-05-05 04:13 | 46.90502 | 76.73897 | 30410 ft | 485 kts | 270° |
| 2026-05-05 04:13 | 46.90298 | 76.64040 | 30405 ft | 485 kts | 270° |
| 2026-05-05 04:14 | 46.90085 | 76.54172 | 30468 ft | 487 kts | 270° |
| 2026-05-05 04:14 | 46.89975 | 76.49214 | 30792 ft | 487 kts | 270° |
| 2026-05-05 04:14 | 46.89863 | 76.44285 | 31293 ft | 484 kts | 270° |
| 2026-05-05 04:15 | 46.89750 | 76.39394 | 31795 ft | 480 kts | 270° |
| 2026-05-05 04:15 | 46.89636 | 76.34524 | 32172 ft | 478 kts | 270° |
| 2026-05-05 04:15 | 46.89521 | 76.29736 | 32521 ft | 477 kts | 270° |
| 2026-05-05 04:15 | 46.89403 | 76.24881 | 32858 ft | 477 kts | 270° |
| 2026-05-05 04:16 | 46.89283 | 76.20046 | 33204 ft | 475 kts | 270° |
| 2026-05-05 04:16 | 46.89162 | 76.15229 | 33549 ft | 474 kts | 270° |
| 2026-05-05 04:16 | 46.89039 | 76.10416 | 33850 ft | 473 kts | 270° |
| 2026-05-05 04:16 | 46.88914 | 76.05614 | 34149 ft | 472 kts | 270° |
| 2026-05-05 04:17 | 46.88659 | 75.96017 | 34218 ft | 473 kts | 270° |
| 2026-05-05 04:17 | 46.88395 | 75.86414 | 34220 ft | 472 kts | 269° |
| 2026-05-05 04:18 | 46.88123 | 75.76816 | 34195 ft | 473 kts | 269° |
| 2026-05-05 04:18 | 46.87843 | 75.67225 | 34196 ft | 473 kts | 269° |
| 2026-05-05 04:19 | 46.87555 | 75.57621 | 34197 ft | 473 kts | 269° |
| 2026-05-05 04:19 | 46.87259 | 75.48021 | 34198 ft | 473 kts | 269° |
| 2026-05-05 04:20 | 46.86954 | 75.38420 | 34199 ft | 473 kts | 269° |
| 2026-05-05 04:20 | 46.86642 | 75.28826 | 34200 ft | 473 kts | 269° |
| 2026-05-05 04:21 | 46.86322 | 75.19228 | 34200 ft | 473 kts | 269° |
| 2026-05-05 04:21 | 46.85995 | 75.09625 | 34201 ft | 473 kts | 269° |
| 2026-05-05 04:22 | 46.85657 | 75.00017 | 34200 ft | 473 kts | 269° |
| 2026-05-05 04:22 | 46.85316 | 74.90475 | 34201 ft | 474 kts | 269° |
| 2026-05-05 04:23 | 46.84963 | 74.80862 | 34200 ft | 474 kts | 269° |
| 2026-05-05 04:23 | 46.84601 | 74.71251 | 34200 ft | 474 kts | 268° |
| 2026-05-05 04:24 | 46.84231 | 74.61633 | 34199 ft | 475 kts | 268° |
| 2026-05-05 04:25 | 46.83664 | 74.47191 | 34194 ft | 475 kts | 268° |
| 2026-05-05 04:25 | 46.83274 | 74.37556 | 34197 ft | 475 kts | 268° |
| 2026-05-05 04:26 | 46.82874 | 74.27924 | 34196 ft | 476 kts | 268° |
| 2026-05-05 04:26 | 46.82466 | 74.18276 | 34196 ft | 476 kts | 268° |
| 2026-05-05 04:27 | 46.82050 | 74.08632 | 34194 ft | 476 kts | 268° |
| 2026-05-05 04:27 | 46.81627 | 73.98980 | 34192 ft | 476 kts | 268° |
| 2026-05-05 04:28 | 46.81195 | 73.89335 | 34191 ft | 476 kts | 268° |
| 2026-05-05 04:28 | 46.80756 | 73.79690 | 34189 ft | 476 kts | 268° |
| 2026-05-05 04:29 | 46.80308 | 73.70056 | 34188 ft | 476 kts | 267° |
| 2026-05-05 04:29 | 46.79852 | 73.60419 | 34186 ft | 476 kts | 267° |
| 2026-05-05 04:30 | 46.79386 | 73.50725 | 34184 ft | 483 kts | 267° |
| 2026-05-05 04:30 | 46.78904 | 73.40892 | 34183 ft | 487 kts | 267° |
| 2026-05-05 04:31 | 46.78414 | 73.31039 | 34179 ft | 486 kts | 267° |
| 2026-05-05 04:31 | 46.77918 | 73.21277 | 34172 ft | 485 kts | 267° |
| 2026-05-05 04:32 | 46.77412 | 73.11474 | 34171 ft | 485 kts | 266° |
| 2026-05-05 04:32 | 46.76898 | 73.01677 | 34168 ft | 485 kts | 266° |
| 2026-05-05 04:33 | 46.76375 | 72.91864 | 34165 ft | 485 kts | 266° |
| 2026-05-05 04:33 | 46.75844 | 72.82072 | 34165 ft | 484 kts | 266° |
| 2026-05-05 04:34 | 46.75307 | 72.72285 | 34160 ft | 484 kts | 266° |
| 2026-05-05 04:34 | 46.74759 | 72.62508 | 34158 ft | 484 kts | 266° |
| 2026-05-05 04:35 | 46.74203 | 72.52716 | 34155 ft | 484 kts | 266° |
| 2026-05-05 04:35 | 46.73640 | 72.42923 | 34152 ft | 484 kts | 266° |
| 2026-05-05 04:36 | 46.73067 | 72.33144 | 34151 ft | 484 kts | 266° |
| 2026-05-05 04:36 | 46.72490 | 72.23381 | 34149 ft | 484 kts | 266° |
| 2026-05-05 04:37 | 46.71900 | 72.13601 | 34144 ft | 484 kts | 265° |
| 2026-05-05 04:37 | 46.71301 | 72.03820 | 34140 ft | 485 kts | 265° |
| 2026-05-05 04:38 | 46.70695 | 71.94037 | 34137 ft | 485 kts | 265° |
| 2026-05-05 04:38 | 46.70081 | 71.84272 | 34135 ft | 484 kts | 265° |
| 2026-05-05 04:39 | 46.69459 | 71.74514 | 34132 ft | 483 kts | 265° |
| 2026-05-05 04:39 | 46.68830 | 71.64768 | 34130 ft | 484 kts | 265° |
| 2026-05-05 04:40 | 46.68196 | 71.55081 | 34128 ft | 484 kts | 265° |
| 2026-05-05 04:40 | 46.67546 | 71.45274 | 34106 ft | 483 kts | 265° |
| 2026-05-05 04:41 | 46.66894 | 71.35555 | 34101 ft | 482 kts | 264° |
| 2026-05-05 04:41 | 46.66238 | 71.25911 | 34095 ft | 482 kts | 264° |
| 2026-05-05 04:42 | 46.65569 | 71.16199 | 34093 ft | 482 kts | 264° |
| 2026-05-05 04:42 | 46.64892 | 71.06482 | 34092 ft | 482 kts | 264° |
| 2026-05-05 04:43 | 46.64207 | 70.96785 | 34091 ft | 481 kts | 264° |
| 2026-05-05 04:43 | 46.63515 | 70.87100 | 34091 ft | 481 kts | 264° |
| 2026-05-05 04:44 | 46.62815 | 70.77416 | 34089 ft | 482 kts | 264° |
| 2026-05-05 04:44 | 46.62106 | 70.67725 | 34089 ft | 482 kts | 264° |
| 2026-05-05 04:45 | 46.61389 | 70.58042 | 34088 ft | 482 kts | 264° |
| 2026-05-05 04:45 | 46.60663 | 70.48357 | 34087 ft | 482 kts | 263° |
| 2026-05-05 04:46 | 46.59929 | 70.38671 | 34087 ft | 481 kts | 263° |
| 2026-05-05 04:46 | 46.59190 | 70.29009 | 34085 ft | 481 kts | 263° |
| 2026-05-05 04:47 | 46.58443 | 70.19349 | 34082 ft | 481 kts | 263° |
| 2026-05-05 04:47 | 46.57684 | 70.09686 | 34085 ft | 481 kts | 263° |
| 2026-05-05 04:48 | 46.57049 | 70.01664 | 34089 ft | 481 kts | 263° |
| 2026-05-05 04:48 | 46.56276 | 69.91999 | 34090 ft | 481 kts | 263° |
| 2026-05-05 04:49 | 46.55367 | 69.80763 | 34089 ft | 482 kts | 263° |
| 2026-05-05 04:49 | 46.54705 | 69.72672 | 34088 ft | 482 kts | 263° |
| 2026-05-05 04:50 | 46.53911 | 69.63015 | 34085 ft | 481 kts | 262° |
| 2026-05-05 04:50 | 46.53105 | 69.53373 | 34088 ft | 480 kts | 262° |
| 2026-05-05 04:51 | 46.52299 | 69.43811 | 34087 ft | 481 kts | 262° |
| 2026-05-05 04:51 | 46.51478 | 69.34175 | 34087 ft | 481 kts | 262° |
| 2026-05-05 04:52 | 46.50650 | 69.24544 | 34083 ft | 481 kts | 262° |
| 2026-05-05 04:52 | 46.49814 | 69.14925 | 34076 ft | 480 kts | 262° |
| 2026-05-05 04:53 | 46.48971 | 69.05312 | 34074 ft | 480 kts | 262° |
| 2026-05-05 04:53 | 46.48119 | 68.95699 | 34073 ft | 480 kts | 262° |
| 2026-05-05 04:54 | 46.47260 | 68.86089 | 34074 ft | 480 kts | 262° |
| 2026-05-05 04:54 | 46.46392 | 68.76485 | 34074 ft | 480 kts | 262° |
| 2026-05-05 04:55 | 46.45518 | 68.66895 | 34074 ft | 480 kts | 261° |
| 2026-05-05 04:55 | 46.44633 | 68.57289 | 34075 ft | 480 kts | 261° |
| 2026-05-05 04:56 | 46.43742 | 68.47696 | 34064 ft | 480 kts | 261° |
| 2026-05-05 04:56 | 46.42842 | 68.38100 | 34062 ft | 480 kts | 261° |
| 2026-05-05 04:57 | 46.41942 | 68.28592 | 34062 ft | 480 kts | 261° |
| 2026-05-05 04:57 | 46.41026 | 68.19005 | 34062 ft | 480 kts | 261° |
| 2026-05-05 04:58 | 46.40103 | 68.09421 | 34064 ft | 480 kts | 261° |
| 2026-05-05 04:58 | 46.39171 | 67.99831 | 34061 ft | 480 kts | 261° |
| 2026-05-05 04:59 | 46.38232 | 67.90262 | 34060 ft | 480 kts | 261° |
| 2026-05-05 04:59 | 46.37286 | 67.80708 | 34059 ft | 479 kts | 261° |
| 2026-05-05 05:00 | 46.36332 | 67.71158 | 34058 ft | 479 kts | 261° |
| 2026-05-05 05:00 | 46.35372 | 67.61610 | 34053 ft | 480 kts | 261° |
| 2026-05-05 05:01 | 46.34407 | 67.52115 | 34052 ft | 479 kts | 260° |
| 2026-05-05 05:01 | 46.33423 | 67.42518 | 34052 ft | 479 kts | 260° |
| 2026-05-05 05:02 | 46.32445 | 67.33056 | 34050 ft | 478 kts | 260° |
| 2026-05-05 05:02 | 46.31453 | 67.23537 | 34049 ft | 478 kts | 260° |
| 2026-05-05 05:03 | 46.30455 | 67.14036 | 34048 ft | 478 kts | 260° |
| 2026-05-05 05:03 | 46.29450 | 67.04544 | 34046 ft | 477 kts | 260° |
| 2026-05-05 05:04 | 46.28437 | 66.95063 | 34045 ft | 477 kts | 260° |
| 2026-05-05 05:04 | 46.27417 | 66.85586 | 34043 ft | 477 kts | 260° |
| 2026-05-05 05:05 | 46.26391 | 66.76133 | 34041 ft | 476 kts | 260° |
| 2026-05-05 05:05 | 46.25359 | 66.66675 | 34036 ft | 476 kts | 259° |
| 2026-05-05 05:06 | 46.24316 | 66.57227 | 34038 ft | 476 kts | 259° |
| 2026-05-05 05:06 | 46.23267 | 66.47795 | 34035 ft | 475 kts | 259° |
| 2026-05-05 05:07 | 46.22211 | 66.38368 | 34034 ft | 476 kts | 259° |
| 2026-05-05 05:07 | 46.21155 | 66.29011 | 34032 ft | 476 kts | 259° |
| 2026-05-05 05:08 | 46.20084 | 66.19586 | 34030 ft | 476 kts | 259° |
| 2026-05-05 05:08 | 46.19005 | 66.10167 | 34029 ft | 476 kts | 259° |
| 2026-05-05 05:09 | 46.17918 | 66.00750 | 34027 ft | 475 kts | 259° |
| 2026-05-05 05:09 | 46.16824 | 65.91343 | 34026 ft | 475 kts | 259° |
| 2026-05-05 05:10 | 46.15723 | 65.81933 | 34024 ft | 476 kts | 259° |
| 2026-05-05 05:10 | 46.14612 | 65.72532 | 34022 ft | 475 kts | 259° |
| 2026-05-05 05:11 | 46.13494 | 65.63132 | 34022 ft | 475 kts | 259° |
| 2026-05-05 05:11 | 46.12371 | 65.53755 | 34017 ft | 475 kts | 259° |
| 2026-05-05 05:12 | 46.11241 | 65.44392 | 34013 ft | 474 kts | 259° |
| 2026-05-05 05:12 | 46.10103 | 65.35027 | 34011 ft | 474 kts | 259° |
| 2026-05-05 05:13 | 46.08962 | 65.25681 | 34007 ft | 474 kts | 259° |
| 2026-05-05 05:13 | 46.07810 | 65.16346 | 34010 ft | 473 kts | 259° |
| 2026-05-05 05:14 | 46.06653 | 65.07029 | 34009 ft | 473 kts | 259° |
| 2026-05-05 05:14 | 46.05490 | 64.97726 | 34009 ft | 472 kts | 259° |
| 2026-05-05 05:15 | 46.04322 | 64.88440 | 34008 ft | 471 kts | 259° |
| 2026-05-05 05:15 | 46.03146 | 64.79160 | 34007 ft | 471 kts | 259° |
| 2026-05-05 05:16 | 46.01963 | 64.69884 | 34007 ft | 470 kts | 259° |
| 2026-05-05 05:16 | 46.00783 | 64.60697 | 34006 ft | 470 kts | 259° |
| 2026-05-05 05:17 | 45.99589 | 64.51458 | 34005 ft | 470 kts | 258° |
| 2026-05-05 05:17 | 45.98387 | 64.42227 | 34005 ft | 470 kts | 258° |
| 2026-05-05 05:18 | 45.97171 | 64.32930 | 34004 ft | 470 kts | 258° |
| 2026-05-05 05:18 | 45.95962 | 64.23769 | 34004 ft | 469 kts | 258° |
| 2026-05-05 05:19 | 45.94742 | 64.14559 | 34003 ft | 469 kts | 258° |
| 2026-05-05 05:19 | 45.93512 | 64.05366 | 34003 ft | 469 kts | 258° |
| 2026-05-05 05:20 | 45.92275 | 63.96168 | 34003 ft | 469 kts | 258° |
| 2026-05-05 05:20 | 45.91031 | 63.86979 | 34002 ft | 469 kts | 258° |
| 2026-05-05 05:21 | 45.89779 | 63.77784 | 34002 ft | 469 kts | 258° |
| 2026-05-05 05:21 | 45.88520 | 63.68599 | 34006 ft | 469 kts | 258° |
| 2026-05-05 05:22 | 45.87255 | 63.59426 | 34006 ft | 469 kts | 258° |
| 2026-05-05 05:22 | 45.85982 | 63.50253 | 34005 ft | 469 kts | 258° |
| 2026-05-05 05:23 | 45.84702 | 63.41085 | 34006 ft | 469 kts | 258° |
| 2026-05-05 05:23 | 45.83414 | 63.31911 | 34005 ft | 470 kts | 258° |
| 2026-05-05 05:24 | 45.82116 | 63.22732 | 34004 ft | 470 kts | 258° |
| 2026-05-05 05:24 | 45.80811 | 63.13553 | 34004 ft | 469 kts | 258° |
| 2026-05-05 05:25 | 45.79504 | 63.04395 | 33999 ft | 469 kts | 258° |
| 2026-05-05 05:25 | 45.78184 | 62.95244 | 34004 ft | 469 kts | 257° |
| 2026-05-05 05:26 | 45.76859 | 62.86100 | 34003 ft | 469 kts | 257° |
| 2026-05-05 05:26 | 45.75527 | 62.76954 | 34002 ft | 469 kts | 257° |
| 2026-05-05 05:27 | 45.74188 | 62.67822 | 34002 ft | 469 kts | 257° |
| 2026-05-05 05:27 | 45.72165 | 62.54122 | 34002 ft | 469 kts | 257° |
| 2026-05-05 05:28 | 45.70808 | 62.44998 | 34000 ft | 469 kts | 257° |
| 2026-05-05 05:28 | 45.69443 | 62.35874 | 34001 ft | 469 kts | 257° |
| 2026-05-05 05:29 | 45.68073 | 62.26765 | 34000 ft | 469 kts | 257° |
| 2026-05-05 05:29 | 45.66702 | 62.17705 | 33999 ft | 469 kts | 257° |
| 2026-05-05 05:30 | 45.65306 | 62.08532 | 33999 ft | 469 kts | 256° |
| 2026-05-05 05:30 | 45.63922 | 61.99491 | 33998 ft | 469 kts | 256° |
| 2026-05-05 05:31 | 45.62520 | 61.90383 | 33997 ft | 469 kts | 256° |
| 2026-05-05 05:31 | 45.61113 | 61.81297 | 33999 ft | 469 kts | 256° |
| 2026-05-05 05:32 | 45.59701 | 61.72222 | 33997 ft | 467 kts | 256° |
| 2026-05-05 05:32 | 45.58284 | 61.63163 | 33991 ft | 467 kts | 256° |
| 2026-05-05 05:33 | 45.56859 | 61.54119 | 33995 ft | 467 kts | 256° |
| 2026-05-05 05:33 | 45.55429 | 61.45086 | 33994 ft | 467 kts | 256° |
| 2026-05-05 05:34 | 45.53993 | 61.36067 | 33994 ft | 466 kts | 256° |
| 2026-05-05 05:34 | 45.52553 | 61.27063 | 33993 ft | 465 kts | 256° |
| 2026-05-05 05:35 | 45.51107 | 61.18081 | 33992 ft | 465 kts | 257° |
| 2026-05-05 05:35 | 45.49902 | 61.10625 | 33993 ft | 464 kts | 257° |
| 2026-05-05 05:36 | 45.48448 | 61.01668 | 33991 ft | 463 kts | 257° |
| 2026-05-05 05:36 | 45.46986 | 60.92720 | 33991 ft | 463 kts | 257° |
| 2026-05-05 05:37 | 45.45520 | 60.83793 | 33987 ft | 463 kts | 256° |
| 2026-05-05 05:37 | 45.44047 | 60.74873 | 33985 ft | 462 kts | 256° |
| 2026-05-05 05:38 | 45.42568 | 60.65961 | 33984 ft | 462 kts | 256° |
| 2026-05-05 05:38 | 45.41082 | 60.57055 | 33984 ft | 462 kts | 256° |
| 2026-05-05 05:39 | 45.39594 | 60.48176 | 33982 ft | 461 kts | 256° |
| 2026-05-05 05:39 | 45.38098 | 60.39301 | 33982 ft | 461 kts | 256° |
| 2026-05-05 05:40 | 45.36594 | 60.30423 | 33982 ft | 461 kts | 256° |
| 2026-05-05 05:40 | 45.35085 | 60.21559 | 33980 ft | 462 kts | 256° |
| 2026-05-05 05:41 | 45.33572 | 60.12718 | 33980 ft | 461 kts | 256° |
| 2026-05-05 05:41 | 45.32045 | 60.03840 | 33980 ft | 461 kts | 256° |
| 2026-05-05 05:42 | 45.30517 | 59.94988 | 33979 ft | 461 kts | 256° |
| 2026-05-05 05:42 | 45.28983 | 59.86164 | 33978 ft | 459 kts | 256° |
| 2026-05-05 05:43 | 45.27448 | 59.77364 | 33961 ft | 459 kts | 256° |
| 2026-05-05 05:43 | 45.25907 | 59.68582 | 33956 ft | 458 kts | 256° |
| 2026-05-05 05:44 | 45.24369 | 59.59863 | 33955 ft | 458 kts | 256° |
| 2026-05-05 05:44 | 45.22816 | 59.51096 | 33954 ft | 458 kts | 256° |
| 2026-05-05 05:45 | 45.21256 | 59.42335 | 33955 ft | 458 kts | 256° |
| 2026-05-05 05:45 | 45.19691 | 59.33587 | 33954 ft | 458 kts | 256° |
| 2026-05-05 05:46 | 45.18122 | 59.24861 | 33953 ft | 457 kts | 255° |
| 2026-05-05 05:46 | 45.16548 | 59.16138 | 33953 ft | 457 kts | 255° |
| 2026-05-05 05:47 | 45.14966 | 59.07424 | 33952 ft | 457 kts | 255° |
| 2026-05-05 05:47 | 45.13383 | 58.98729 | 33949 ft | 457 kts | 255° |
| 2026-05-05 05:48 | 45.11787 | 58.90024 | 33951 ft | 456 kts | 255° |
| 2026-05-05 05:48 | 45.10191 | 58.81343 | 33949 ft | 456 kts | 255° |
| 2026-05-05 05:49 | 45.08585 | 58.72669 | 33948 ft | 456 kts | 255° |
| 2026-05-05 05:49 | 45.06974 | 58.63998 | 33933 ft | 456 kts | 255° |
| 2026-05-05 05:50 | 45.05354 | 58.55323 | 33939 ft | 456 kts | 255° |
| 2026-05-05 05:50 | 45.03729 | 58.46657 | 33941 ft | 456 kts | 255° |
| 2026-05-05 05:51 | 45.02100 | 58.38006 | 33939 ft | 455 kts | 255° |
| 2026-05-05 05:51 | 45.00465 | 58.29366 | 33942 ft | 455 kts | 255° |
| 2026-05-05 05:52 | 44.98825 | 58.20738 | 33941 ft | 455 kts | 255° |
| 2026-05-05 05:52 | 44.97176 | 58.12105 | 33941 ft | 455 kts | 254° |
| 2026-05-05 05:53 | 44.95524 | 58.03479 | 33940 ft | 455 kts | 254° |
| 2026-05-05 05:53 | 44.93862 | 57.94860 | 33930 ft | 454 kts | 254° |
| 2026-05-05 05:54 | 44.92212 | 57.86326 | 33930 ft | 453 kts | 254° |
| 2026-05-05 05:54 | 44.90535 | 57.77705 | 33928 ft | 453 kts | 254° |
| 2026-05-05 05:55 | 44.88872 | 57.69192 | 33929 ft | 453 kts | 254° |
| 2026-05-05 05:55 | 44.87192 | 57.60626 | 33927 ft | 453 kts | 253° |
| 2026-05-05 05:56 | 44.85505 | 57.52060 | 33927 ft | 453 kts | 253° |
| 2026-05-05 05:56 | 44.83814 | 57.43513 | 33927 ft | 453 kts | 253° |
| 2026-05-05 05:57 | 44.82117 | 57.34966 | 33926 ft | 452 kts | 253° |
| 2026-05-05 05:57 | 44.80415 | 57.26440 | 33924 ft | 452 kts | 253° |
| 2026-05-05 05:58 | 44.78706 | 57.17919 | 33907 ft | 453 kts | 253° |
| 2026-05-05 05:58 | 44.76991 | 57.09396 | 33897 ft | 452 kts | 253° |
| 2026-05-05 05:59 | 44.75273 | 57.00899 | 33895 ft | 451 kts | 253° |
| 2026-05-05 05:59 | 44.73552 | 56.92412 | 33894 ft | 451 kts | 253° |
| 2026-05-05 06:00 | 44.71820 | 56.83922 | 33894 ft | 451 kts | 253° |
| 2026-05-05 06:00 | 44.70087 | 56.75458 | 33893 ft | 450 kts | 253° |
| 2026-05-05 06:01 | 44.68347 | 56.66997 | 33892 ft | 450 kts | 253° |
| 2026-05-05 06:01 | 44.66604 | 56.58553 | 33891 ft | 450 kts | 253° |
| 2026-05-05 06:02 | 44.64854 | 56.50115 | 33891 ft | 450 kts | 253° |
| 2026-05-05 06:02 | 44.63100 | 56.41688 | 33890 ft | 449 kts | 252° |
| 2026-05-05 06:03 | 44.61343 | 56.33285 | 33888 ft | 449 kts | 252° |
| 2026-05-05 06:03 | 44.59581 | 56.24888 | 33888 ft | 448 kts | 252° |
| 2026-05-05 06:04 | 44.57814 | 56.16503 | 33887 ft | 448 kts | 252° |
| 2026-05-05 06:04 | 44.56042 | 56.08132 | 33886 ft | 448 kts | 252° |
| 2026-05-05 06:05 | 44.54266 | 55.99767 | 33885 ft | 448 kts | 252° |
| 2026-05-05 06:05 | 44.52483 | 55.91405 | 33884 ft | 447 kts | 252° |
| 2026-05-05 06:06 | 44.50695 | 55.83062 | 33883 ft | 447 kts | 252° |
| 2026-05-05 06:06 | 44.48903 | 55.74723 | 33879 ft | 447 kts | 252° |
| 2026-05-05 06:07 | 44.47102 | 55.66387 | 33882 ft | 447 kts | 252° |
| 2026-05-05 06:07 | 44.45296 | 55.58061 | 33880 ft | 447 kts | 252° |
| 2026-05-05 06:08 | 44.43483 | 55.49730 | 33879 ft | 454 kts | 251° |
| 2026-05-05 06:08 | 44.41631 | 55.41256 | 33879 ft | 456 kts | 251° |
| 2026-05-05 06:09 | 44.39773 | 55.32787 | 33878 ft | 455 kts | 251° |
| 2026-05-05 06:09 | 44.37911 | 55.24334 | 33877 ft | 455 kts | 251° |
| 2026-05-05 06:10 | 44.36045 | 55.15893 | 33876 ft | 455 kts | 251° |
| 2026-05-05 06:10 | 44.34169 | 55.07447 | 33875 ft | 455 kts | 251° |
| 2026-05-05 06:11 | 44.32288 | 54.98995 | 33871 ft | 456 kts | 251° |
| 2026-05-05 06:11 | 44.30399 | 54.90558 | 33874 ft | 455 kts | 251° |
| 2026-05-05 06:12 | 44.28502 | 54.82117 | 33872 ft | 456 kts | 251° |
| 2026-05-05 06:12 | 44.26602 | 54.73683 | 33868 ft | 456 kts | 250° |
| 2026-05-05 06:13 | 44.24691 | 54.65250 | 33870 ft | 456 kts | 250° |
| 2026-05-05 06:13 | 44.22773 | 54.56817 | 33870 ft | 456 kts | 250° |
| 2026-05-05 06:14 | 44.20848 | 54.48380 | 33869 ft | 456 kts | 250° |
| 2026-05-05 06:14 | 44.18919 | 54.39951 | 33867 ft | 456 kts | 250° |
| 2026-05-05 06:15 | 44.16983 | 54.31540 | 33867 ft | 456 kts | 250° |
| 2026-05-05 06:15 | 44.15045 | 54.23142 | 33866 ft | 455 kts | 250° |
| 2026-05-05 06:16 | 44.13099 | 54.14748 | 33866 ft | 456 kts | 250° |
| 2026-05-05 06:16 | 44.11148 | 54.06359 | 33865 ft | 456 kts | 250° |
| 2026-05-05 06:17 | 44.09188 | 53.97966 | 33863 ft | 456 kts | 250° |
| 2026-05-05 06:17 | 44.07224 | 53.89583 | 33862 ft | 456 kts | 250° |
| 2026-05-05 06:18 | 44.05252 | 53.81203 | 33861 ft | 456 kts | 250° |
| 2026-05-05 06:18 | 44.03278 | 53.72841 | 33861 ft | 456 kts | 250° |
| 2026-05-05 06:19 | 44.01307 | 53.64525 | 33860 ft | 456 kts | 249° |
| 2026-05-05 06:19 | 43.99318 | 53.56163 | 33860 ft | 456 kts | 249° |
| 2026-05-05 06:20 | 43.97674 | 53.49159 | 33858 ft | 455 kts | 250° |
| 2026-05-05 06:20 | 43.95698 | 53.40830 | 33858 ft | 454 kts | 249° |
| 2026-05-05 06:21 | 43.93689 | 53.32536 | 33857 ft | 453 kts | 249° |
| 2026-05-05 06:21 | 43.91688 | 53.24307 | 33857 ft | 453 kts | 249° |
| 2026-05-05 06:22 | 43.89667 | 53.16039 | 33848 ft | 451 kts | 248° |
| 2026-05-05 06:22 | 43.86846 | 53.08302 | 33856 ft | 450 kts | 237° |
| 2026-05-05 06:23 | 43.83339 | 53.01135 | 33856 ft | 449 kts | 233° |
| 2026-05-05 06:23 | 43.79644 | 52.94183 | 33863 ft | 448 kts | 233° |
| 2026-05-05 06:24 | 43.75937 | 52.87242 | 33863 ft | 448 kts | 233° |
| 2026-05-05 06:24 | 43.72235 | 52.80308 | 33862 ft | 448 kts | 233° |
| 2026-05-05 06:25 | 43.68531 | 52.73378 | 33861 ft | 448 kts | 233° |
| 2026-05-05 06:25 | 43.64864 | 52.66408 | 33860 ft | 448 kts | 233° |
| 2026-05-05 06:26 | 43.61187 | 52.59449 | 33860 ft | 448 kts | 233° |
| 2026-05-05 06:26 | 43.57496 | 52.52520 | 33860 ft | 448 kts | 233° |
| 2026-05-05 06:27 | 43.51937 | 52.42142 | 33859 ft | 448 kts | 232° |
| 2026-05-05 06:28 | 43.48227 | 52.35241 | 33858 ft | 448 kts | 232° |
| 2026-05-05 06:28 | 43.44520 | 52.28363 | 33858 ft | 447 kts | 232° |
| 2026-05-05 06:29 | 43.40810 | 52.21495 | 33858 ft | 447 kts | 232° |
| 2026-05-05 06:29 | 43.37094 | 52.14632 | 33857 ft | 447 kts | 232° |
| 2026-05-05 06:30 | 43.33377 | 52.07784 | 33857 ft | 447 kts | 232° |
| 2026-05-05 06:30 | 43.29643 | 52.00922 | 34157 ft | 448 kts | 232° |
| 2026-05-05 06:30 | 43.27779 | 51.97501 | 34547 ft | 445 kts | 232° |
| 2026-05-05 06:31 | 43.25928 | 51.94108 | 34862 ft | 444 kts | 232° |
| 2026-05-05 06:31 | 43.24077 | 51.90720 | 35093 ft | 444 kts | 232° |
| 2026-05-05 06:31 | 43.22226 | 51.87335 | 35348 ft | 443 kts | 232° |
| 2026-05-05 06:31 | 43.20377 | 51.83958 | 35601 ft | 443 kts | 232° |
| 2026-05-05 06:32 | 43.18531 | 51.80588 | 35837 ft | 442 kts | 232° |
| 2026-05-05 06:32 | 43.14835 | 51.73857 | 35856 ft | 441 kts | 232° |
| 2026-05-05 06:33 | 43.11184 | 51.67222 | 35856 ft | 438 kts | 232° |
| 2026-05-05 06:33 | 43.07520 | 51.60581 | 35856 ft | 437 kts | 232° |
| 2026-05-05 06:34 | 43.03855 | 51.53949 | 35857 ft | 438 kts | 232° |
| 2026-05-05 06:34 | 43.00178 | 51.47312 | 35858 ft | 438 kts | 232° |
| 2026-05-05 06:35 | 42.96498 | 51.40685 | 35858 ft | 438 kts | 232° |
| 2026-05-05 06:35 | 42.92821 | 51.34076 | 35858 ft | 437 kts | 232° |
| 2026-05-05 06:36 | 42.89139 | 51.27476 | 35861 ft | 437 kts | 232° |
| 2026-05-05 06:36 | 42.85455 | 51.20885 | 35861 ft | 437 kts | 232° |
| 2026-05-05 06:37 | 42.81764 | 51.14295 | 35863 ft | 437 kts | 232° |
| 2026-05-05 06:37 | 42.78072 | 51.07721 | 35867 ft | 436 kts | 232° |
| 2026-05-05 06:38 | 42.74385 | 51.01167 | 35871 ft | 436 kts | 232° |
| 2026-05-05 06:38 | 42.70691 | 50.94617 | 35874 ft | 436 kts | 232° |
| 2026-05-05 06:39 | 42.66997 | 50.88080 | 35874 ft | 435 kts | 232° |
| 2026-05-05 06:39 | 42.63308 | 50.81564 | 35876 ft | 435 kts | 232° |
| 2026-05-05 06:40 | 42.59639 | 50.75026 | 35878 ft | 435 kts | 232° |
| 2026-05-05 06:40 | 42.55938 | 50.68527 | 35880 ft | 435 kts | 232° |
| 2026-05-05 06:41 | 42.52232 | 50.62051 | 35882 ft | 434 kts | 232° |
| 2026-05-05 06:41 | 42.48529 | 50.55592 | 35884 ft | 433 kts | 232° |
| 2026-05-05 06:42 | 42.44832 | 50.49151 | 35886 ft | 432 kts | 232° |
| 2026-05-05 06:42 | 42.41224 | 50.42649 | 35887 ft | 432 kts | 234° |
| 2026-05-05 06:43 | 42.37818 | 50.35947 | 35889 ft | 432 kts | 235° |
| 2026-05-05 06:43 | 42.34418 | 50.29254 | 35891 ft | 431 kts | 234° |
| 2026-05-05 06:44 | 42.31018 | 50.22646 | 35892 ft | 431 kts | 234° |
| 2026-05-05 06:44 | 42.27587 | 50.16017 | 35894 ft | 431 kts | 234° |
| 2026-05-05 06:45 | 42.24144 | 50.09395 | 35895 ft | 430 kts | 234° |
| 2026-05-05 06:45 | 42.20745 | 50.02752 | 35906 ft | 430 kts | 234° |
| 2026-05-05 06:46 | 42.17331 | 49.96120 | 35910 ft | 430 kts | 234° |
| 2026-05-05 06:46 | 42.13909 | 49.89520 | 35909 ft | 430 kts | 234° |
| 2026-05-05 06:47 | 42.10480 | 49.82939 | 35916 ft | 429 kts | 234° |
| 2026-05-05 06:47 | 42.07037 | 49.76350 | 35915 ft | 431 kts | 234° |
| 2026-05-05 06:48 | 42.03582 | 49.69758 | 35917 ft | 431 kts | 234° |
| 2026-05-05 06:48 | 42.00124 | 49.63173 | 35917 ft | 431 kts | 234° |
| 2026-05-05 06:49 | 41.96663 | 49.56597 | 35919 ft | 430 kts | 234° |
| 2026-05-05 06:49 | 41.93212 | 49.50053 | 35920 ft | 429 kts | 234° |
| 2026-05-05 06:50 | 41.89764 | 49.43529 | 35921 ft | 428 kts | 234° |
| 2026-05-05 06:50 | 41.86310 | 49.37010 | 35923 ft | 428 kts | 234° |
| 2026-05-05 06:51 | 41.82856 | 49.30502 | 35924 ft | 428 kts | 233° |
| 2026-05-05 06:51 | 41.79400 | 49.24006 | 35925 ft | 428 kts | 233° |
| 2026-05-05 06:52 | 41.75938 | 49.17512 | 35927 ft | 428 kts | 233° |
| 2026-05-05 06:52 | 41.72475 | 49.11030 | 35927 ft | 427 kts | 233° |
| 2026-05-05 06:53 | 41.69012 | 49.04563 | 35929 ft | 427 kts | 233° |
| 2026-05-05 06:53 | 41.65545 | 48.98100 | 35931 ft | 428 kts | 233° |
| 2026-05-05 06:54 | 41.62074 | 48.91645 | 35932 ft | 428 kts | 233° |
| 2026-05-05 06:54 | 41.58596 | 48.85190 | 35933 ft | 427 kts | 233° |
| 2026-05-05 06:55 | 41.55147 | 48.78802 | 35935 ft | 427 kts | 233° |
| 2026-05-05 06:55 | 41.51670 | 48.72376 | 35936 ft | 427 kts | 233° |
| 2026-05-05 06:56 | 41.48194 | 48.65965 | 35938 ft | 427 kts | 232° |
| 2026-05-05 06:56 | 41.44710 | 48.59551 | 35941 ft | 427 kts | 232° |
| 2026-05-05 06:57 | 41.41220 | 48.53141 | 35942 ft | 427 kts | 232° |
| 2026-05-05 06:57 | 41.37726 | 48.46739 | 35944 ft | 427 kts | 232° |
| 2026-05-05 06:58 | 41.34232 | 48.40346 | 35947 ft | 427 kts | 232° |
| 2026-05-05 06:58 | 41.30734 | 48.33962 | 35948 ft | 427 kts | 232° |
| 2026-05-05 06:59 | 41.27258 | 48.27564 | 35965 ft | 426 kts | 232° |
| 2026-05-05 06:59 | 41.23766 | 48.21210 | 35968 ft | 426 kts | 232° |
| 2026-05-05 07:00 | 41.20256 | 48.14865 | 35969 ft | 426 kts | 232° |
| 2026-05-05 07:00 | 41.16744 | 48.08531 | 35969 ft | 425 kts | 232° |
| 2026-05-05 07:01 | 41.13239 | 48.02215 | 35968 ft | 424 kts | 232° |
| 2026-05-05 07:01 | 41.11738 | 47.98859 | 35976 ft | 427 kts | 245° |
| 2026-05-05 07:01 | 41.11004 | 47.95077 | 35973 ft | 434 kts | 260° |
| 2026-05-05 07:01 | 41.11101 | 47.91046 | 35970 ft | 442 kts | 272° |
| 2026-05-05 07:02 | 41.11718 | 47.87017 | 35967 ft | 449 kts | 276° |
| 2026-05-05 07:02 | 41.13236 | 47.78899 | 35962 ft | 457 kts | 276° |
| 2026-05-05 07:03 | 41.14603 | 47.70621 | 35967 ft | 461 kts | 274° |
| 2026-05-05 07:03 | 41.15791 | 47.62277 | 35965 ft | 459 kts | 273° |
| 2026-05-05 07:04 | 41.16913 | 47.53948 | 35964 ft | 458 kts | 273° |
| 2026-05-05 07:04 | 41.18085 | 47.45643 | 35965 ft | 458 kts | 274° |
| 2026-05-05 07:05 | 41.19247 | 47.37301 | 35967 ft | 460 kts | 273° |
| 2026-05-05 07:05 | 41.20388 | 47.28943 | 35966 ft | 460 kts | 273° |
| 2026-05-05 07:06 | 41.21512 | 47.20571 | 35973 ft | 460 kts | 273° |
| 2026-05-05 07:06 | 41.22629 | 47.12186 | 35976 ft | 462 kts | 273° |
| 2026-05-05 07:07 | 41.23555 | 47.05203 | 35978 ft | 462 kts | 273° |
| 2026-05-05 07:07 | 41.24666 | 46.96770 | 35983 ft | 463 kts | 273° |
| 2026-05-05 07:08 | 41.25771 | 46.88328 | 35987 ft | 464 kts | 273° |
| 2026-05-05 07:08 | 41.26872 | 46.79871 | 35993 ft | 465 kts | 273° |
| 2026-05-05 07:09 | 41.27970 | 46.71387 | 35996 ft | 466 kts | 273° |
| 2026-05-05 07:09 | 41.29057 | 46.62941 | 35998 ft | 467 kts | 273° |
| 2026-05-05 07:10 | 41.30150 | 46.54418 | 35997 ft | 468 kts | 272° |
| 2026-05-05 07:10 | 41.31234 | 46.45871 | 35997 ft | 469 kts | 272° |
| 2026-05-05 07:11 | 41.32316 | 46.37301 | 35994 ft | 470 kts | 272° |
| 2026-05-05 07:11 | 41.33394 | 46.28704 | 35993 ft | 472 kts | 272° |
| 2026-05-05 07:12 | 41.34470 | 46.20082 | 35989 ft | 473 kts | 272° |
| 2026-05-05 07:12 | 41.35541 | 46.11438 | 35985 ft | 473 kts | 272° |
| 2026-05-05 07:13 | 41.36608 | 46.02791 | 35978 ft | 474 kts | 272° |
| 2026-05-05 07:13 | 41.37667 | 45.94126 | 35975 ft | 475 kts | 273° |
| 2026-05-05 07:14 | 41.38726 | 45.85408 | 35971 ft | 478 kts | 273° |
| 2026-05-05 07:14 | 41.39782 | 45.76662 | 35965 ft | 478 kts | 272° |
| 2026-05-05 07:15 | 41.40832 | 45.67923 | 35960 ft | 477 kts | 272° |
| 2026-05-05 07:15 | 41.41864 | 45.59251 | 35957 ft | 477 kts | 272° |
| 2026-05-05 07:16 | 41.42898 | 45.50522 | 35952 ft | 477 kts | 272° |
| 2026-05-05 07:16 | 41.43925 | 45.41788 | 35948 ft | 477 kts | 272° |
| 2026-05-05 07:17 | 41.44952 | 45.32998 | 35945 ft | 477 kts | 272° |
| 2026-05-05 07:17 | 41.45959 | 45.24314 | 35942 ft | 477 kts | 272° |
| 2026-05-05 07:18 | 41.46967 | 45.15568 | 35942 ft | 477 kts | 273° |
| 2026-05-05 07:18 | 41.47968 | 45.06821 | 35940 ft | 477 kts | 273° |
| 2026-05-05 07:19 | 41.48963 | 44.98062 | 35938 ft | 478 kts | 273° |
| 2026-05-05 07:19 | 41.49954 | 44.89286 | 35937 ft | 479 kts | 273° |
| 2026-05-05 07:20 | 41.50941 | 44.80474 | 35938 ft | 481 kts | 273° |
| 2026-05-05 07:20 | 41.51923 | 44.71647 | 35937 ft | 481 kts | 273° |
| 2026-05-05 07:21 | 41.52917 | 44.62802 | 35939 ft | 483 kts | 274° |
| 2026-05-05 07:21 | 41.53916 | 44.53935 | 35940 ft | 483 kts | 273° |
| 2026-05-05 07:22 | 41.54870 | 44.45044 | 35942 ft | 485 kts | 273° |
| 2026-05-05 07:22 | 41.55819 | 44.36119 | 35944 ft | 486 kts | 273° |
| 2026-05-05 07:23 | 41.56767 | 44.27185 | 35947 ft | 487 kts | 273° |
| 2026-05-05 07:23 | 41.57402 | 44.18206 | 35949 ft | 485 kts | 268° |
| 2026-05-05 07:24 | 41.57427 | 44.09216 | 35951 ft | 484 kts | 265° |
| 2026-05-05 07:24 | 41.57299 | 44.00237 | 35954 ft | 483 kts | 265° |
| 2026-05-05 07:25 | 41.57239 | 43.91261 | 35955 ft | 484 kts | 265° |
| 2026-05-05 07:25 | 41.57207 | 43.82265 | 35963 ft | 485 kts | 265° |
| 2026-05-05 07:26 | 41.57203 | 43.73258 | 35966 ft | 485 kts | 266° |
| 2026-05-05 07:26 | 41.57242 | 43.64265 | 35966 ft | 484 kts | 266° |
| 2026-05-05 07:27 | 41.57244 | 43.55278 | 35967 ft | 484 kts | 266° |
| 2026-05-05 07:27 | 41.57227 | 43.46302 | 35967 ft | 483 kts | 266° |
| 2026-05-05 07:28 | 41.57200 | 43.37337 | 35966 ft | 483 kts | 266° |
| 2026-05-05 07:28 | 41.57164 | 43.28375 | 35966 ft | 483 kts | 266° |
| 2026-05-05 07:29 | 41.57121 | 43.19417 | 35964 ft | 482 kts | 265° |
| 2026-05-05 07:29 | 41.57071 | 43.10462 | 35963 ft | 482 kts | 265° |
| 2026-05-05 07:30 | 41.57014 | 43.01507 | 35956 ft | 482 kts | 265° |
| 2026-05-05 07:30 | 41.56916 | 42.88061 | 35955 ft | 483 kts | 265° |
| 2026-05-05 07:31 | 41.56842 | 42.79147 | 35956 ft | 483 kts | 265° |
| 2026-05-05 07:31 | 41.56760 | 42.70168 | 35955 ft | 484 kts | 265° |
| 2026-05-05 07:32 | 41.56672 | 42.61177 | 35955 ft | 485 kts | 265° |
| 2026-05-05 07:32 | 41.56576 | 42.52168 | 35954 ft | 485 kts | 265° |
| 2026-05-05 07:33 | 41.56473 | 42.43151 | 35958 ft | 486 kts | 265° |
| 2026-05-05 07:33 | 41.56363 | 42.34115 | 35960 ft | 487 kts | 265° |
| 2026-05-05 07:34 | 41.56245 | 42.25073 | 35961 ft | 488 kts | 265° |
| 2026-05-05 07:34 | 41.56121 | 42.16011 | 35961 ft | 488 kts | 265° |
| 2026-05-05 07:35 | 41.55989 | 42.06943 | 35963 ft | 489 kts | 265° |
| 2026-05-05 07:35 | 41.55850 | 41.97871 | 35964 ft | 489 kts | 265° |
| 2026-05-05 07:36 | 41.55704 | 41.88784 | 35964 ft | 490 kts | 265° |
| 2026-05-05 07:36 | 41.55593 | 41.79750 | 35965 ft | 490 kts | 265° |
| 2026-05-05 07:37 | 41.55427 | 41.70672 | 35965 ft | 490 kts | 265° |
| 2026-05-05 07:37 | 41.55244 | 41.61585 | 35966 ft | 489 kts | 265° |
| 2026-05-05 07:38 | 41.55055 | 41.52511 | 35964 ft | 489 kts | 265° |
| 2026-05-05 07:38 | 41.54916 | 41.43427 | 35965 ft | 490 kts | 268° |
| 2026-05-05 07:39 | 41.55341 | 41.34343 | 35967 ft | 491 kts | 272° |
| 2026-05-05 07:39 | 41.55978 | 41.25254 | 35970 ft | 492 kts | 272° |
| 2026-05-05 07:40 | 41.56515 | 41.16148 | 35974 ft | 492 kts | 271° |
| 2026-05-05 07:40 | 41.57016 | 41.07032 | 35976 ft | 492 kts | 271° |
| 2026-05-05 07:41 | 41.57593 | 40.97919 | 35979 ft | 493 kts | 271° |
| 2026-05-05 07:41 | 41.58097 | 40.88788 | 35981 ft | 493 kts | 271° |
| 2026-05-05 07:42 | 41.58568 | 40.79636 | 35984 ft | 494 kts | 271° |
| 2026-05-05 07:42 | 41.59035 | 40.70529 | 35986 ft | 495 kts | 271° |
| 2026-05-05 07:43 | 41.59504 | 40.61347 | 35987 ft | 496 kts | 271° |
| 2026-05-05 07:43 | 41.59959 | 40.52152 | 35986 ft | 497 kts | 271° |
| 2026-05-05 07:44 | 41.60401 | 40.42942 | 35986 ft | 497 kts | 271° |
| 2026-05-05 07:44 | 41.60837 | 40.33708 | 35987 ft | 498 kts | 271° |
| 2026-05-05 07:45 | 41.61268 | 40.24456 | 35987 ft | 499 kts | 271° |
| 2026-05-05 07:45 | 41.61705 | 40.15193 | 35987 ft | 500 kts | 272° |
| 2026-05-05 07:46 | 41.62185 | 40.05925 | 35988 ft | 500 kts | 271° |
| 2026-05-05 07:46 | 41.62649 | 39.96649 | 35989 ft | 500 kts | 271° |
| 2026-05-05 07:47 | 41.63081 | 39.87358 | 35988 ft | 501 kts | 271° |
| 2026-05-05 07:47 | 41.63476 | 39.78064 | 35991 ft | 501 kts | 271° |
| 2026-05-05 07:48 | 41.63864 | 39.68756 | 35991 ft | 501 kts | 271° |
| 2026-05-05 07:48 | 41.64252 | 39.59465 | 35990 ft | 500 kts | 271° |
| 2026-05-05 07:49 | 41.64636 | 39.50173 | 35990 ft | 500 kts | 271° |
| 2026-05-05 07:49 | 41.65006 | 39.40885 | 35990 ft | 500 kts | 271° |
| 2026-05-05 07:50 | 41.65364 | 39.31601 | 35991 ft | 500 kts | 271° |
| 2026-05-05 07:50 | 41.65714 | 39.22312 | 35990 ft | 500 kts | 271° |
| 2026-05-05 07:51 | 41.66057 | 39.13026 | 35990 ft | 500 kts | 271° |
| 2026-05-05 07:51 | 41.66458 | 39.03739 | 35991 ft | 500 kts | 271° |
| 2026-05-05 07:52 | 41.66834 | 38.94498 | 35992 ft | 501 kts | 271° |
| 2026-05-05 07:52 | 41.67184 | 38.85185 | 35990 ft | 501 kts | 271° |
| 2026-05-05 07:53 | 41.67521 | 38.75859 | 35991 ft | 502 kts | 271° |
| 2026-05-05 07:53 | 41.67850 | 38.66520 | 35991 ft | 503 kts | 271° |
| 2026-05-05 07:54 | 41.68171 | 38.57174 | 35991 ft | 503 kts | 271° |
| 2026-05-05 07:54 | 41.68486 | 38.47808 | 35992 ft | 504 kts | 271° |
| 2026-05-05 07:55 | 41.68792 | 38.38432 | 35996 ft | 505 kts | 271° |
| 2026-05-05 07:55 | 41.69041 | 38.30622 | 35996 ft | 506 kts | 271° |
| 2026-05-05 07:56 | 41.69335 | 38.21213 | 35997 ft | 506 kts | 271° |
| 2026-05-05 07:56 | 41.69622 | 38.11799 | 35998 ft | 507 kts | 271° |
| 2026-05-05 07:57 | 41.69938 | 38.02382 | 36003 ft | 507 kts | 271° |
| 2026-05-05 07:57 | 41.70209 | 37.92952 | 36006 ft | 507 kts | 271° |
| 2026-05-05 07:58 | 41.70455 | 37.83529 | 36007 ft | 507 kts | 271° |
| 2026-05-05 07:58 | 41.70697 | 37.74101 | 36008 ft | 507 kts | 271° |
| 2026-05-05 07:59 | 41.71485 | 37.64757 | 36009 ft | 507 kts | 283° |
| 2026-05-05 07:59 | 41.73913 | 37.55885 | 36015 ft | 508 kts | 294° |
| 2026-05-05 08:00 | 41.76859 | 37.47272 | 36013 ft | 509 kts | 294° |
| 2026-05-05 08:00 | 41.79711 | 37.38608 | 36015 ft | 508 kts | 293° |
| 2026-05-05 08:01 | 41.82472 | 37.29887 | 36018 ft | 508 kts | 292° |
| 2026-05-05 08:01 | 41.85201 | 37.21161 | 36021 ft | 508 kts | 292° |
| 2026-05-05 08:02 | 41.87928 | 37.12423 | 36022 ft | 508 kts | 292° |
| 2026-05-05 08:02 | 41.90244 | 37.03485 | 36027 ft | 508 kts | 282° |
| 2026-05-05 08:03 | 41.91253 | 36.94112 | 36026 ft | 508 kts | 275° |
| 2026-05-05 08:03 | 41.91799 | 36.84657 | 36027 ft | 508 kts | 274° |
| 2026-05-05 08:04 | 41.92356 | 36.75203 | 36029 ft | 508 kts | 275° |
| 2026-05-05 08:04 | 41.92947 | 36.65739 | 36029 ft | 509 kts | 275° |
| 2026-05-05 08:05 | 41.93547 | 36.56274 | 36031 ft | 509 kts | 275° |
| 2026-05-05 08:05 | 41.94211 | 36.46793 | 36028 ft | 510 kts | 275° |
| 2026-05-05 08:06 | 41.94831 | 36.37357 | 36028 ft | 510 kts | 275° |
| 2026-05-05 08:06 | 41.95436 | 36.27792 | 36030 ft | 511 kts | 275° |
| 2026-05-05 08:07 | 41.96027 | 36.18274 | 36033 ft | 511 kts | 275° |
| 2026-05-05 08:07 | 41.96605 | 36.08812 | 36035 ft | 512 kts | 275° |
| 2026-05-05 08:08 | 41.97180 | 35.99273 | 36006 ft | 512 kts | 275° |
| 2026-05-05 08:08 | 41.97747 | 35.89738 | 36004 ft | 512 kts | 275° |
| 2026-05-05 08:09 | 41.98305 | 35.80206 | 36002 ft | 512 kts | 275° |
| 2026-05-05 08:09 | 41.98860 | 35.70605 | 36000 ft | 512 kts | 275° |
| 2026-05-05 08:10 | 41.99399 | 35.61134 | 36000 ft | 512 kts | 275° |
| 2026-05-05 08:10 | 41.99934 | 35.51598 | 35976 ft | 512 kts | 275° |
| 2026-05-05 08:11 | 42.00503 | 35.42062 | 35970 ft | 513 kts | 275° |
| 2026-05-05 08:11 | 42.01017 | 35.32479 | 35969 ft | 514 kts | 275° |
| 2026-05-05 08:12 | 42.01514 | 35.22877 | 35969 ft | 515 kts | 275° |
| 2026-05-05 08:12 | 42.02008 | 35.13271 | 35969 ft | 515 kts | 275° |
| 2026-05-05 08:13 | 42.02279 | 35.03640 | 35968 ft | 516 kts | 270° |
| 2026-05-05 08:13 | 42.01845 | 34.93986 | 35969 ft | 518 kts | 266° |
| 2026-05-05 08:14 | 42.01213 | 34.84334 | 35969 ft | 519 kts | 267° |
| 2026-05-05 08:14 | 42.00673 | 34.74654 | 35968 ft | 520 kts | 268° |
| 2026-05-05 08:15 | 42.00163 | 34.64956 | 35966 ft | 520 kts | 268° |
| 2026-05-05 08:15 | 41.99695 | 34.55249 | 35970 ft | 520 kts | 268° |
| 2026-05-05 08:16 | 41.99231 | 34.45567 | 35967 ft | 519 kts | 268° |
| 2026-05-05 08:16 | 41.98731 | 34.35891 | 35968 ft | 520 kts | 268° |
| 2026-05-05 08:17 | 41.98215 | 34.26176 | 35967 ft | 521 kts | 268° |
| 2026-05-05 08:17 | 41.97690 | 34.16465 | 35967 ft | 522 kts | 268° |
| 2026-05-05 08:18 | 41.97193 | 34.06725 | 35968 ft | 522 kts | 268° |
| 2026-05-05 08:18 | 41.96649 | 33.96980 | 35967 ft | 523 kts | 268° |
| 2026-05-05 08:19 | 41.96080 | 33.87250 | 35966 ft | 523 kts | 268° |
| 2026-05-05 08:19 | 41.95507 | 33.77510 | 35967 ft | 522 kts | 268° |
| 2026-05-05 08:20 | 41.95669 | 33.67816 | 35973 ft | 518 kts | 281° |
| 2026-05-05 08:20 | 41.97251 | 33.58470 | 35977 ft | 514 kts | 288° |
| 2026-05-05 08:21 | 41.99180 | 33.49236 | 35977 ft | 512 kts | 288° |
| 2026-05-05 08:21 | 42.01054 | 33.39951 | 35979 ft | 511 kts | 288° |
| 2026-05-05 08:22 | 42.02791 | 33.30759 | 35981 ft | 511 kts | 287° |
| 2026-05-05 08:22 | 42.04530 | 33.21499 | 35984 ft | 510 kts | 287° |
| 2026-05-05 08:23 | 42.06267 | 33.12253 | 35985 ft | 509 kts | 288° |
| 2026-05-05 08:23 | 42.08025 | 33.03036 | 35990 ft | 507 kts | 289° |
| 2026-05-05 08:24 | 42.09975 | 32.93931 | 35992 ft | 506 kts | 289° |
| 2026-05-05 08:24 | 42.11849 | 32.84805 | 35996 ft | 505 kts | 289° |
| 2026-05-05 08:25 | 42.13684 | 32.75694 | 35998 ft | 504 kts | 289° |
| 2026-05-05 08:25 | 42.15518 | 32.66580 | 36001 ft | 503 kts | 289° |
| 2026-05-05 08:26 | 42.17356 | 32.57488 | 36003 ft | 502 kts | 290° |
| 2026-05-05 08:26 | 42.19203 | 32.48404 | 36006 ft | 502 kts | 289° |
| 2026-05-05 08:27 | 42.20999 | 32.39318 | 36007 ft | 501 kts | 289° |
| 2026-05-05 08:27 | 42.22787 | 32.30234 | 36009 ft | 501 kts | 289° |
| 2026-05-05 08:28 | 42.24572 | 32.21160 | 36010 ft | 500 kts | 289° |
| 2026-05-05 08:28 | 42.26363 | 32.12083 | 36012 ft | 500 kts | 289° |
| 2026-05-05 08:29 | 42.28133 | 32.02990 | 36013 ft | 501 kts | 289° |
| 2026-05-05 08:30 | 42.30759 | 31.89345 | 36014 ft | 500 kts | 289° |
| 2026-05-05 08:30 | 42.32497 | 31.80261 | 36015 ft | 500 kts | 289° |
| 2026-05-05 08:31 | 42.34220 | 31.71229 | 36034 ft | 499 kts | 289° |
| 2026-05-05 08:31 | 42.35981 | 31.62162 | 36038 ft | 499 kts | 289° |
| 2026-05-05 08:32 | 42.37742 | 31.53096 | 36036 ft | 498 kts | 289° |
| 2026-05-05 08:32 | 42.39510 | 31.44032 | 36038 ft | 498 kts | 289° |
| 2026-05-05 08:33 | 42.41214 | 31.34958 | 36039 ft | 497 kts | 288° |
| 2026-05-05 08:33 | 42.42901 | 31.25885 | 36039 ft | 497 kts | 288° |
| 2026-05-05 08:34 | 42.44583 | 31.16819 | 36041 ft | 496 kts | 288° |
| 2026-05-05 08:34 | 42.46263 | 31.07764 | 36043 ft | 495 kts | 288° |
| 2026-05-05 08:35 | 42.47934 | 30.98721 | 36044 ft | 495 kts | 288° |
| 2026-05-05 08:35 | 42.49591 | 30.89684 | 36045 ft | 494 kts | 288° |
| 2026-05-05 08:36 | 42.51239 | 30.80647 | 36047 ft | 493 kts | 288° |
| 2026-05-05 08:36 | 42.52879 | 30.71629 | 36049 ft | 493 kts | 288° |
| 2026-05-05 08:37 | 42.54587 | 30.62639 | 36051 ft | 492 kts | 289° |
| 2026-05-05 08:37 | 42.56245 | 30.53644 | 36052 ft | 492 kts | 288° |
| 2026-05-05 08:38 | 42.57856 | 30.44628 | 36053 ft | 491 kts | 288° |
| 2026-05-05 08:38 | 42.59449 | 30.35675 | 36055 ft | 491 kts | 288° |
| 2026-05-05 08:39 | 42.61392 | 30.26850 | 36056 ft | 486 kts | 297° |
| 2026-05-05 08:39 | 42.64831 | 30.19048 | 36058 ft | 479 kts | 311° |
| 2026-05-05 08:40 | 42.68966 | 30.12012 | 36059 ft | 475 kts | 313° |
| 2026-05-05 08:40 | 42.73088 | 30.05018 | 36064 ft | 474 kts | 312° |
| 2026-05-05 08:41 | 42.76451 | 29.99129 | 36079 ft | 475 kts | 311° |
| 2026-05-05 08:41 | 42.80470 | 29.91991 | 36080 ft | 475 kts | 311° |
| 2026-05-05 08:42 | 42.84502 | 29.84866 | 36080 ft | 474 kts | 311° |
| 2026-05-05 08:42 | 42.88538 | 29.77750 | 36080 ft | 474 kts | 311° |
| 2026-05-05 08:43 | 42.92554 | 29.70600 | 36080 ft | 475 kts | 310° |
| 2026-05-05 08:43 | 42.96560 | 29.63430 | 36081 ft | 475 kts | 310° |
| 2026-05-05 08:44 | 43.00563 | 29.56240 | 36080 ft | 476 kts | 310° |
| 2026-05-05 08:44 | 43.04563 | 29.49037 | 36080 ft | 476 kts | 310° |
| 2026-05-05 08:45 | 43.08558 | 29.41824 | 36081 ft | 476 kts | 310° |
| 2026-05-05 08:45 | 43.12553 | 29.34593 | 36081 ft | 476 kts | 310° |
| 2026-05-05 08:46 | 43.16558 | 29.27326 | 36081 ft | 479 kts | 309° |
| 2026-05-05 08:46 | 43.20548 | 29.20068 | 36082 ft | 480 kts | 309° |
| 2026-05-05 08:47 | 43.24560 | 29.12754 | 36084 ft | 479 kts | 309° |
| 2026-05-05 08:47 | 43.28564 | 29.05435 | 36081 ft | 479 kts | 309° |
| 2026-05-05 08:48 | 43.32565 | 28.98102 | 36082 ft | 480 kts | 309° |
| 2026-05-05 08:48 | 43.36556 | 28.90768 | 36076 ft | 480 kts | 309° |
| 2026-05-05 08:48 | 43.38561 | 28.87083 | 35968 ft | 481 kts | 309° |
| 2026-05-05 08:49 | 43.40558 | 28.83419 | 36088 ft | 479 kts | 309° |
| 2026-05-05 08:49 | 43.44549 | 28.76043 | 36083 ft | 481 kts | 308° |
| 2026-05-05 08:50 | 43.48536 | 28.68654 | 36082 ft | 481 kts | 308° |
| 2026-05-05 08:50 | 43.52525 | 28.61249 | 36082 ft | 481 kts | 308° |
| 2026-05-05 08:51 | 43.56514 | 28.53831 | 36082 ft | 482 kts | 308° |
| 2026-05-05 08:51 | 43.60499 | 28.46397 | 36082 ft | 482 kts | 308° |
| 2026-05-05 08:52 | 43.64479 | 28.38953 | 36083 ft | 482 kts | 307° |
| 2026-05-05 08:52 | 43.68459 | 28.31493 | 36082 ft | 482 kts | 307° |
| 2026-05-05 08:53 | 43.72437 | 28.24017 | 36082 ft | 483 kts | 307° |
| 2026-05-05 08:53 | 43.76412 | 28.16527 | 36083 ft | 483 kts | 307° |
| 2026-05-05 08:54 | 43.80384 | 28.09024 | 36083 ft | 483 kts | 307° |
| 2026-05-05 08:54 | 43.84351 | 28.01511 | 36082 ft | 483 kts | 307° |
| 2026-05-05 08:55 | 43.88315 | 27.93986 | 36083 ft | 484 kts | 306° |
| 2026-05-05 08:55 | 43.92277 | 27.86443 | 36083 ft | 484 kts | 306° |
| 2026-05-05 08:56 | 43.96236 | 27.78886 | 36083 ft | 484 kts | 306° |
| 2026-05-05 08:56 | 44.00184 | 27.71332 | 36082 ft | 483 kts | 306° |
| 2026-05-05 08:57 | 44.04123 | 27.63776 | 36082 ft | 483 kts | 306° |
| 2026-05-05 08:57 | 44.08058 | 27.56207 | 36083 ft | 483 kts | 306° |
| 2026-05-05 08:58 | 44.11992 | 27.48622 | 36083 ft | 483 kts | 306° |
| 2026-05-05 08:58 | 44.15918 | 27.41031 | 36082 ft | 483 kts | 306° |
| 2026-05-05 08:59 | 44.19837 | 27.33433 | 36082 ft | 482 kts | 306° |
| 2026-05-05 08:59 | 44.23741 | 27.25845 | 36083 ft | 482 kts | 306° |
| 2026-05-05 09:00 | 44.27644 | 27.18240 | 36083 ft | 481 kts | 306° |
| 2026-05-05 09:00 | 44.31509 | 27.10689 | 36083 ft | 481 kts | 306° |
| 2026-05-05 09:01 | 44.35390 | 27.03085 | 36082 ft | 481 kts | 306° |
| 2026-05-05 09:01 | 44.39264 | 26.95479 | 36081 ft | 480 kts | 306° |
| 2026-05-05 09:02 | 44.43152 | 26.87896 | 36083 ft | 479 kts | 306° |
| 2026-05-05 09:02 | 44.47011 | 26.80289 | 36083 ft | 479 kts | 306° |
| 2026-05-05 09:03 | 44.50850 | 26.72654 | 36082 ft | 479 kts | 306° |
| 2026-05-05 09:03 | 44.54687 | 26.65004 | 36081 ft | 479 kts | 306° |
| 2026-05-05 09:04 | 44.58524 | 26.57354 | 36081 ft | 479 kts | 306° |
| 2026-05-05 09:04 | 44.62461 | 26.49818 | 36081 ft | 479 kts | 308° |
| 2026-05-05 09:05 | 44.66597 | 26.42490 | 36082 ft | 478 kts | 309° |
| 2026-05-05 09:05 | 44.70701 | 26.35147 | 36082 ft | 478 kts | 309° |
| 2026-05-05 09:06 | 44.74775 | 26.27759 | 36082 ft | 478 kts | 308° |
| 2026-05-05 09:06 | 44.78841 | 26.20345 | 36082 ft | 479 kts | 308° |
| 2026-05-05 09:07 | 44.82933 | 26.12948 | 36081 ft | 479 kts | 309° |
| 2026-05-05 09:07 | 44.87030 | 26.05551 | 36081 ft | 478 kts | 309° |
| 2026-05-05 09:08 | 44.91095 | 25.98140 | 36081 ft | 478 kts | 309° |
| 2026-05-05 09:08 | 44.95151 | 25.90707 | 36081 ft | 477 kts | 309° |
| 2026-05-05 09:09 | 44.99165 | 25.83328 | 36081 ft | 477 kts | 309° |
| 2026-05-05 09:09 | 45.03205 | 25.75878 | 36080 ft | 478 kts | 309° |
| 2026-05-05 09:10 | 45.07244 | 25.68410 | 36080 ft | 478 kts | 309° |
| 2026-05-05 09:10 | 45.11279 | 25.60930 | 36080 ft | 478 kts | 309° |
| 2026-05-05 09:11 | 45.15312 | 25.53433 | 36080 ft | 478 kts | 309° |
| 2026-05-05 09:11 | 45.19335 | 25.45935 | 36079 ft | 478 kts | 309° |
| 2026-05-05 09:12 | 45.23354 | 25.38427 | 36079 ft | 478 kts | 309° |
| 2026-05-05 09:12 | 45.27370 | 25.30903 | 36079 ft | 478 kts | 309° |
| 2026-05-05 09:13 | 45.31381 | 25.23368 | 36079 ft | 478 kts | 309° |
| 2026-05-05 09:13 | 45.35383 | 25.15830 | 36079 ft | 478 kts | 309° |
| 2026-05-05 09:14 | 45.39383 | 25.08278 | 36080 ft | 478 kts | 309° |
| 2026-05-05 09:14 | 45.43380 | 25.00710 | 36079 ft | 478 kts | 309° |
| 2026-05-05 09:15 | 45.47368 | 24.93137 | 36080 ft | 478 kts | 309° |
| 2026-05-05 09:15 | 45.51357 | 24.85544 | 36080 ft | 478 kts | 308° |
| 2026-05-05 09:16 | 45.55340 | 24.77941 | 36081 ft | 479 kts | 308° |
| 2026-05-05 09:16 | 45.59322 | 24.70329 | 36081 ft | 478 kts | 309° |
| 2026-05-05 09:17 | 45.63303 | 24.62776 | 36081 ft | 479 kts | 308° |
| 2026-05-05 09:17 | 45.67267 | 24.55128 | 36081 ft | 479 kts | 308° |
| 2026-05-05 09:18 | 45.71227 | 24.47450 | 36082 ft | 479 kts | 308° |
| 2026-05-05 09:18 | 45.75186 | 24.39764 | 36082 ft | 479 kts | 308° |
| 2026-05-05 09:19 | 45.79076 | 24.32008 | 36083 ft | 480 kts | 305° |
| 2026-05-05 09:19 | 45.82508 | 24.23783 | 36083 ft | 482 kts | 301° |
| 2026-05-05 09:20 | 45.85737 | 24.15356 | 36083 ft | 482 kts | 301° |
| 2026-05-05 09:20 | 45.89015 | 24.06947 | 36083 ft | 482 kts | 301° |
| 2026-05-05 09:21 | 45.92318 | 23.98570 | 36084 ft | 482 kts | 302° |
| 2026-05-05 09:21 | 45.95633 | 23.90190 | 36086 ft | 482 kts | 302° |
| 2026-05-05 09:22 | 45.99004 | 23.81860 | 36088 ft | 482 kts | 302° |
| 2026-05-05 09:22 | 46.02348 | 23.73502 | 36090 ft | 482 kts | 302° |
| 2026-05-05 09:23 | 46.05671 | 23.65118 | 36092 ft | 482 kts | 302° |
| 2026-05-05 09:23 | 46.08983 | 23.56725 | 36094 ft | 482 kts | 302° |
| 2026-05-05 09:24 | 46.12285 | 23.48325 | 36096 ft | 482 kts | 301° |
| 2026-05-05 09:24 | 46.15579 | 23.39917 | 36096 ft | 481 kts | 301° |
| 2026-05-05 09:25 | 46.18844 | 23.31556 | 36096 ft | 481 kts | 301° |
| 2026-05-05 09:25 | 46.22119 | 23.23145 | 36095 ft | 481 kts | 301° |
| 2026-05-05 09:26 | 46.25388 | 23.14725 | 36078 ft | 481 kts | 301° |
| 2026-05-05 09:26 | 46.28653 | 23.06285 | 36074 ft | 480 kts | 301° |
| 2026-05-05 09:27 | 46.31905 | 22.97858 | 36073 ft | 480 kts | 301° |
| 2026-05-05 09:27 | 46.34601 | 22.90849 | 36071 ft | 479 kts | 301° |
| 2026-05-05 09:28 | 46.37838 | 22.82413 | 36070 ft | 478 kts | 301° |
| 2026-05-05 09:28 | 46.41048 | 22.74017 | 36068 ft | 475 kts | 300° |
| 2026-05-05 09:29 | 46.44246 | 22.65627 | 36067 ft | 475 kts | 300° |
| 2026-05-05 09:29 | 46.47437 | 22.57235 | 36065 ft | 475 kts | 300° |
| 2026-05-05 09:30 | 46.50619 | 22.48833 | 36063 ft | 475 kts | 300° |
| 2026-05-05 09:30 | 46.53793 | 22.40428 | 36064 ft | 474 kts | 300° |
| 2026-05-05 09:31 | 46.56961 | 22.32016 | 36061 ft | 475 kts | 300° |
| 2026-05-05 09:31 | 46.60120 | 22.23598 | 36060 ft | 475 kts | 300° |
| 2026-05-05 09:32 | 46.63277 | 22.15162 | 36058 ft | 474 kts | 300° |
| 2026-05-05 09:32 | 46.66434 | 22.06732 | 36057 ft | 474 kts | 300° |
| 2026-05-05 09:33 | 46.69608 | 21.98305 | 36056 ft | 474 kts | 300° |
| 2026-05-05 09:33 | 46.72729 | 21.89846 | 36055 ft | 474 kts | 299° |
| 2026-05-05 09:34 | 46.75840 | 21.81375 | 36055 ft | 474 kts | 299° |
| 2026-05-05 09:34 | 46.78952 | 21.72888 | 36054 ft | 474 kts | 299° |
| 2026-05-05 09:35 | 46.82139 | 21.64464 | 36055 ft | 474 kts | 302° |
| 2026-05-05 09:35 | 46.87583 | 21.52485 | 36052 ft | 474 kts | 305° |
| 2026-05-05 09:36 | 46.91259 | 21.44486 | 36051 ft | 474 kts | 304° |
| 2026-05-05 09:36 | 46.94883 | 21.36440 | 36050 ft | 473 kts | 304° |
| 2026-05-05 09:37 | 46.98492 | 21.28368 | 36046 ft | 474 kts | 303° |
| 2026-05-05 09:37 | 47.02129 | 21.20311 | 36042 ft | 474 kts | 304° |
| 2026-05-05 09:38 | 47.05774 | 21.12252 | 36042 ft | 474 kts | 303° |
| 2026-05-05 09:38 | 47.09394 | 21.04151 | 36041 ft | 475 kts | 303° |
| 2026-05-05 09:39 | 47.13001 | 20.96032 | 36038 ft | 475 kts | 303° |
| 2026-05-05 09:39 | 47.16605 | 20.87891 | 36035 ft | 475 kts | 303° |
| 2026-05-05 09:40 | 47.20205 | 20.79735 | 36033 ft | 475 kts | 303° |
| 2026-05-05 09:40 | 47.23799 | 20.71567 | 36030 ft | 475 kts | 303° |
| 2026-05-05 09:41 | 47.27385 | 20.63392 | 36028 ft | 475 kts | 303° |
| 2026-05-05 09:41 | 47.30962 | 20.55213 | 36026 ft | 475 kts | 302° |
| 2026-05-05 09:42 | 47.34566 | 20.47043 | 36025 ft | 476 kts | 303° |
| 2026-05-05 09:42 | 47.38149 | 20.38822 | 36024 ft | 477 kts | 302° |
| 2026-05-05 09:43 | 47.41709 | 20.30565 | 36024 ft | 477 kts | 302° |
| 2026-05-05 09:43 | 47.45264 | 20.22295 | 36025 ft | 477 kts | 302° |
| 2026-05-05 09:44 | 47.48823 | 20.14016 | 36021 ft | 477 kts | 302° |
| 2026-05-05 09:44 | 47.52398 | 20.05819 | 36020 ft | 477 kts | 303° |
| 2026-05-05 09:45 | 47.56059 | 19.97624 | 36017 ft | 477 kts | 302° |
| 2026-05-05 09:45 | 47.59700 | 19.89396 | 36006 ft | 478 kts | 302° |
| 2026-05-05 09:46 | 47.63335 | 19.81131 | 36000 ft | 478 kts | 302° |
| 2026-05-05 09:46 | 47.66957 | 19.72864 | 35998 ft | 478 kts | 302° |
| 2026-05-05 09:47 | 47.70608 | 19.64615 | 35996 ft | 478 kts | 303° |
| 2026-05-05 09:47 | 47.74275 | 19.56378 | 35995 ft | 478 kts | 302° |
| 2026-05-05 09:48 | 47.77911 | 19.48109 | 35994 ft | 478 kts | 302° |
| 2026-05-05 09:48 | 47.81542 | 19.39796 | 36257 ft | 479 kts | 302° |
| 2026-05-05 09:49 | 47.83350 | 19.35646 | 36633 ft | 476 kts | 302° |
| 2026-05-05 09:49 | 47.85123 | 19.31564 | 36913 ft | 475 kts | 302° |
| 2026-05-05 09:49 | 47.86915 | 19.27436 | 37149 ft | 475 kts | 302° |
| 2026-05-05 09:49 | 47.88709 | 19.23294 | 37394 ft | 475 kts | 302° |
| 2026-05-05 09:50 | 47.90496 | 19.19164 | 37626 ft | 474 kts | 302° |
| 2026-05-05 09:50 | 47.92276 | 19.15040 | 37920 ft | 472 kts | 302° |
| 2026-05-05 09:50 | 47.95800 | 19.06858 | 37975 ft | 466 kts | 302° |
| 2026-05-05 09:51 | 47.99282 | 18.98750 | 37969 ft | 462 kts | 302° |
| 2026-05-05 09:51 | 48.02740 | 18.90678 | 37962 ft | 462 kts | 301° |
| 2026-05-05 09:52 | 48.06197 | 18.82578 | 37957 ft | 463 kts | 301° |
| 2026-05-05 09:52 | 48.09663 | 18.74437 | 37952 ft | 464 kts | 301° |
| 2026-05-05 09:53 | 48.13126 | 18.66277 | 37948 ft | 464 kts | 301° |
| 2026-05-05 09:53 | 48.16580 | 18.58112 | 37936 ft | 465 kts | 301° |
| 2026-05-05 09:54 | 48.20034 | 18.49925 | 37930 ft | 465 kts | 301° |
| 2026-05-05 09:54 | 48.23484 | 18.41722 | 37927 ft | 465 kts | 301° |
| 2026-05-05 09:55 | 48.26928 | 18.33507 | 37923 ft | 465 kts | 301° |
| 2026-05-05 09:55 | 48.30370 | 18.25274 | 37920 ft | 466 kts | 301° |
| 2026-05-05 09:56 | 48.33808 | 18.17022 | 37917 ft | 466 kts | 301° |
| 2026-05-05 09:56 | 48.37241 | 18.08760 | 37914 ft | 466 kts | 301° |
| 2026-05-05 09:57 | 48.40667 | 18.00486 | 37911 ft | 466 kts | 300° |
| 2026-05-05 09:57 | 48.44092 | 17.92193 | 37907 ft | 466 kts | 300° |
| 2026-05-05 09:58 | 48.47510 | 17.83888 | 37906 ft | 467 kts | 300° |
| 2026-05-05 09:58 | 48.50926 | 17.75562 | 37905 ft | 467 kts | 300° |
| 2026-05-05 09:59 | 48.54337 | 17.67224 | 37905 ft | 466 kts | 300° |
| 2026-05-05 09:59 | 48.57736 | 17.58890 | 37903 ft | 466 kts | 300° |
| 2026-05-05 10:00 | 48.61129 | 17.50545 | 37902 ft | 466 kts | 300° |
| 2026-05-05 10:00 | 48.64555 | 17.42217 | 37897 ft | 467 kts | 300° |
| 2026-05-05 10:01 | 48.67938 | 17.33836 | 37893 ft | 467 kts | 299° |
| 2026-05-05 10:01 | 48.71299 | 17.25439 | 37890 ft | 466 kts | 299° |
| 2026-05-05 10:02 | 48.74658 | 17.17028 | 37880 ft | 467 kts | 299° |
| 2026-05-05 10:02 | 48.77996 | 17.08669 | 37879 ft | 467 kts | 299° |
| 2026-05-05 10:03 | 48.81190 | 17.00118 | 37877 ft | 466 kts | 296° |
| 2026-05-05 10:03 | 48.84176 | 16.91381 | 37876 ft | 466 kts | 295° |
| 2026-05-05 10:04 | 48.87185 | 16.82664 | 37876 ft | 466 kts | 296° |
| 2026-05-05 10:04 | 48.90205 | 16.73972 | 37876 ft | 466 kts | 296° |
| 2026-05-05 10:05 | 48.93238 | 16.65242 | 37876 ft | 466 kts | 296° |
| 2026-05-05 10:05 | 48.96298 | 16.56549 | 37876 ft | 466 kts | 296° |
| 2026-05-05 10:06 | 48.99360 | 16.47852 | 37875 ft | 466 kts | 296° |
| 2026-05-05 10:06 | 49.02424 | 16.39156 | 37875 ft | 466 kts | 296° |
| 2026-05-05 10:07 | 49.05454 | 16.30405 | 37875 ft | 467 kts | 295° |
| 2026-05-05 10:07 | 49.08452 | 16.21623 | 37873 ft | 467 kts | 295° |
| 2026-05-05 10:08 | 49.11445 | 16.12832 | 37875 ft | 466 kts | 295° |
| 2026-05-05 10:08 | 49.14435 | 16.04052 | 37875 ft | 466 kts | 295° |
| 2026-05-05 10:09 | 49.17540 | 15.95360 | 37874 ft | 467 kts | 298° |
| 2026-05-05 10:09 | 49.20912 | 15.86881 | 37874 ft | 467 kts | 299° |
| 2026-05-05 10:10 | 49.24268 | 15.78379 | 37873 ft | 467 kts | 298° |
| 2026-05-05 10:10 | 49.27582 | 15.69841 | 37870 ft | 467 kts | 298° |
| 2026-05-05 10:11 | 49.30887 | 15.61263 | 37867 ft | 467 kts | 298° |
| 2026-05-05 10:11 | 49.34176 | 15.52764 | 37864 ft | 467 kts | 298° |
| 2026-05-05 10:12 | 49.37542 | 15.44182 | 37861 ft | 467 kts | 298° |
| 2026-05-05 10:12 | 49.40834 | 15.35659 | 37858 ft | 467 kts | 298° |
| 2026-05-05 10:13 | 49.44129 | 15.27065 | 37856 ft | 467 kts | 298° |
| 2026-05-05 10:13 | 49.47417 | 15.18444 | 37854 ft | 468 kts | 297° |
| 2026-05-05 10:14 | 49.50699 | 15.09810 | 37853 ft | 468 kts | 297° |
| 2026-05-05 10:14 | 49.53973 | 15.01164 | 37851 ft | 467 kts | 297° |
| 2026-05-05 10:15 | 49.56711 | 14.93914 | 37851 ft | 467 kts | 297° |
| 2026-05-05 10:15 | 49.59971 | 14.85254 | 37850 ft | 467 kts | 297° |
| 2026-05-05 10:16 | 49.63223 | 14.76587 | 37848 ft | 467 kts | 297° |
| 2026-05-05 10:16 | 49.66467 | 14.67911 | 37848 ft | 467 kts | 297° |
| 2026-05-05 10:17 | 49.69704 | 14.59226 | 37848 ft | 466 kts | 297° |
| 2026-05-05 10:17 | 49.72832 | 14.50806 | 37848 ft | 467 kts | 297° |
| 2026-05-05 10:18 | 49.76167 | 14.41899 | 37832 ft | 467 kts | 297° |
| 2026-05-05 10:18 | 49.79398 | 14.33196 | 37833 ft | 466 kts | 296° |
| 2026-05-05 10:19 | 49.82591 | 14.24461 | 37836 ft | 466 kts | 296° |
| 2026-05-05 10:19 | 49.85776 | 14.15715 | 37842 ft | 466 kts | 296° |
| 2026-05-05 10:20 | 49.88960 | 14.06967 | 37842 ft | 466 kts | 296° |
| 2026-05-05 10:20 | 49.92125 | 13.98201 | 37841 ft | 466 kts | 296° |
| 2026-05-05 10:21 | 49.95262 | 13.89386 | 37840 ft | 466 kts | 296° |
| 2026-05-05 10:21 | 49.98386 | 13.80560 | 37838 ft | 466 kts | 296° |
| 2026-05-05 10:22 | 50.01504 | 13.71720 | 37837 ft | 466 kts | 296° |
| 2026-05-05 10:22 | 50.04615 | 13.62872 | 37836 ft | 466 kts | 295° |
| 2026-05-05 10:23 | 50.07733 | 13.54020 | 37836 ft | 467 kts | 296° |
| 2026-05-05 10:23 | 50.10904 | 13.45194 | 37836 ft | 467 kts | 296° |
| 2026-05-05 10:24 | 50.14034 | 13.36325 | 37836 ft | 467 kts | 295° |
| 2026-05-05 10:24 | 50.17142 | 13.27442 | 37842 ft | 467 kts | 295° |
| 2026-05-05 10:25 | 50.20245 | 13.18532 | 37842 ft | 467 kts | 295° |
| 2026-05-05 10:25 | 50.23339 | 13.09616 | 37846 ft | 467 kts | 295° |
| 2026-05-05 10:26 | 50.26468 | 13.00715 | 37846 ft | 468 kts | 295° |
| 2026-05-05 10:26 | 50.29554 | 12.91763 | 37846 ft | 468 kts | 294° |
| 2026-05-05 10:27 | 50.32615 | 12.82780 | 37847 ft | 468 kts | 294° |
| 2026-05-05 10:27 | 50.35673 | 12.73787 | 37851 ft | 468 kts | 294° |
| 2026-05-05 10:28 | 50.38736 | 12.64773 | 37855 ft | 469 kts | 294° |
| 2026-05-05 10:28 | 50.41967 | 12.55883 | 37859 ft | 470 kts | 297° |
| 2026-05-05 10:29 | 50.45439 | 12.47185 | 37863 ft | 471 kts | 298° |
| 2026-05-05 10:29 | 50.48883 | 12.38438 | 37868 ft | 471 kts | 297° |
| 2026-05-05 10:30 | 50.52286 | 12.29656 | 37868 ft | 471 kts | 297° |
| 2026-05-05 10:30 | 50.55682 | 12.20825 | 37870 ft | 471 kts | 297° |
| 2026-05-05 10:31 | 50.59104 | 12.12027 | 37872 ft | 471 kts | 298° |
| 2026-05-05 10:31 | 50.62520 | 12.03293 | 37873 ft | 471 kts | 297° |
| 2026-05-05 10:32 | 50.65920 | 11.94474 | 37872 ft | 472 kts | 297° |
| 2026-05-05 10:32 | 50.69312 | 11.85611 | 37871 ft | 472 kts | 297° |
| 2026-05-05 10:33 | 50.72697 | 11.76722 | 37873 ft | 472 kts | 297° |
| 2026-05-05 10:33 | 50.76075 | 11.67820 | 37873 ft | 473 kts | 297° |
| 2026-05-05 10:34 | 50.79444 | 11.58911 | 37873 ft | 473 kts | 297° |
| 2026-05-05 10:34 | 50.82809 | 11.49979 | 37873 ft | 472 kts | 297° |
| 2026-05-05 10:35 | 50.86160 | 11.41054 | 37873 ft | 472 kts | 296° |
| 2026-05-05 10:35 | 50.89507 | 11.32108 | 37875 ft | 472 kts | 296° |
| 2026-05-05 10:36 | 50.92849 | 11.23147 | 37876 ft | 473 kts | 296° |
| 2026-05-05 10:36 | 50.96188 | 11.14160 | 37876 ft | 473 kts | 296° |
| 2026-05-05 10:37 | 50.99520 | 11.05160 | 37876 ft | 473 kts | 296° |
| 2026-05-05 10:37 | 51.02846 | 10.96148 | 37876 ft | 473 kts | 296° |
| 2026-05-05 10:38 | 51.06163 | 10.87124 | 37876 ft | 473 kts | 296° |
| 2026-05-05 10:38 | 51.09481 | 10.78092 | 37877 ft | 473 kts | 297° |
| 2026-05-05 10:39 | 51.12827 | 10.69072 | 37877 ft | 473 kts | 296° |
| 2026-05-05 10:39 | 51.16115 | 10.59994 | 37875 ft | 473 kts | 296° |
| 2026-05-05 10:40 | 51.19391 | 10.50893 | 37875 ft | 473 kts | 296° |
| 2026-05-05 10:40 | 51.22664 | 10.41784 | 37871 ft | 473 kts | 296° |
| 2026-05-05 10:41 | 51.25923 | 10.32667 | 37870 ft | 473 kts | 295° |
| 2026-05-05 10:41 | 51.28926 | 10.23414 | 37868 ft | 472 kts | 292° |
| 2026-05-05 10:42 | 51.33319 | 10.09359 | 37867 ft | 471 kts | 293° |
| 2026-05-05 10:43 | 51.36269 | 10.00001 | 37867 ft | 471 kts | 293° |
| 2026-05-05 10:43 | 51.39223 | 9.90631 | 37870 ft | 472 kts | 293° |
| 2026-05-05 10:44 | 51.42209 | 9.81274 | 37877 ft | 472 kts | 294° |
| 2026-05-05 10:44 | 51.45215 | 9.71932 | 37878 ft | 472 kts | 293° |
| 2026-05-05 10:45 | 51.48187 | 9.62535 | 37878 ft | 472 kts | 293° |
| 2026-05-05 10:45 | 51.51138 | 9.53132 | 37877 ft | 472 kts | 293° |
| 2026-05-05 10:46 | 51.54078 | 9.43718 | 37878 ft | 472 kts | 293° |
| 2026-05-05 10:46 | 51.57011 | 9.34287 | 37876 ft | 472 kts | 293° |
| 2026-05-05 10:47 | 51.59945 | 9.24824 | 37875 ft | 473 kts | 293° |
| 2026-05-05 10:47 | 51.62917 | 9.15387 | 37879 ft | 473 kts | 293° |
| 2026-05-05 10:48 | 51.65831 | 9.05872 | 37880 ft | 474 kts | 292° |
| 2026-05-05 10:48 | 51.68724 | 8.96343 | 37881 ft | 474 kts | 292° |
| 2026-05-05 10:49 | 51.71618 | 8.86796 | 37880 ft | 474 kts | 292° |
| 2026-05-05 10:49 | 51.74507 | 8.77247 | 37879 ft | 474 kts | 292° |
| 2026-05-05 10:50 | 51.77193 | 8.67546 | 37879 ft | 473 kts | 290° |
| 2026-05-05 10:50 | 51.79763 | 8.57753 | 37881 ft | 473 kts | 290° |
| 2026-05-05 10:51 | 51.82333 | 8.48049 | 37882 ft | 472 kts | 290° |
| 2026-05-05 10:51 | 51.84921 | 8.38289 | 37884 ft | 472 kts | 290° |
| 2026-05-05 10:52 | 51.87505 | 8.28529 | 37888 ft | 472 kts | 290° |
| 2026-05-05 10:52 | 51.90156 | 8.18801 | 37892 ft | 472 kts | 291° |
| 2026-05-05 10:53 | 51.92784 | 8.09072 | 37896 ft | 472 kts | 290° |
| 2026-05-05 10:53 | 51.95386 | 7.99300 | 37897 ft | 472 kts | 290° |
| 2026-05-05 10:54 | 51.97938 | 7.89575 | 37781 ft | 460 kts | 290° |
| 2026-05-05 10:54 | 51.99177 | 7.84845 | 37345 ft | 453 kts | 290° |
| 2026-05-05 10:54 | 52.00408 | 7.80138 | 36503 ft | 456 kts | 289° |
| 2026-05-05 10:54 | 52.01656 | 7.75363 | 35623 ft | 460 kts | 289° |
| 2026-05-05 10:55 | 52.02896 | 7.70606 | 35142 ft | 454 kts | 289° |
| 2026-05-05 10:55 | 52.04007 | 7.66332 | 34569 ft | 452 kts | 288° |
| 2026-05-05 10:55 | 52.05228 | 7.61629 | 33951 ft | 450 kts | 288° |
| 2026-05-05 10:55 | 52.06438 | 7.56955 | 33325 ft | 448 kts | 288° |
| 2026-05-05 10:56 | 52.07641 | 7.52304 | 32685 ft | 446 kts | 288° |
| 2026-05-05 10:56 | 52.08842 | 7.47647 | 32027 ft | 445 kts | 288° |
| 2026-05-05 10:56 | 52.10054 | 7.43023 | 31366 ft | 444 kts | 289° |
| 2026-05-05 10:56 | 52.11272 | 7.38413 | 30710 ft | 443 kts | 289° |
| 2026-05-05 10:57 | 52.12460 | 7.33815 | 30189 ft | 439 kts | 289° |
| 2026-05-05 10:57 | 52.13624 | 7.29248 | 29655 ft | 435 kts | 289° |
| 2026-05-05 10:57 | 52.14757 | 7.24770 | 29107 ft | 432 kts | 289° |
| 2026-05-05 10:57 | 52.15913 | 7.20193 | 28542 ft | 429 kts | 289° |
| 2026-05-05 10:58 | 52.17043 | 7.15708 | 27986 ft | 427 kts | 289° |
| 2026-05-05 10:58 | 52.18163 | 7.11259 | 27435 ft | 424 kts | 289° |
| 2026-05-05 10:58 | 52.19268 | 7.06869 | 26897 ft | 422 kts | 289° |
| 2026-05-05 10:58 | 52.20426 | 7.02497 | 26356 ft | 419 kts | 293° |
| 2026-05-05 10:59 | 52.21746 | 6.98274 | 25818 ft | 418 kts | 296° |
| 2026-05-05 10:59 | 52.23263 | 6.94234 | 25281 ft | 417 kts | 301° |
| 2026-05-05 10:59 | 52.25013 | 6.90466 | 24743 ft | 417 kts | 306° |
| 2026-05-05 10:59 | 52.26896 | 6.86875 | 24204 ft | 415 kts | 308° |
| 2026-05-05 11:00 | 52.28765 | 6.83293 | 23663 ft | 413 kts | 307° |
| 2026-05-05 11:00 | 52.30579 | 6.79667 | 23129 ft | 411 kts | 307° |
| 2026-05-05 11:00 | 52.32365 | 6.76043 | 22595 ft | 409 kts | 307° |
| 2026-05-05 11:00 | 52.34141 | 6.72425 | 22060 ft | 407 kts | 307° |
| 2026-05-05 11:01 | 52.35329 | 6.70056 | 21706 ft | 406 kts | 308° |
| 2026-05-05 11:01 | 52.37101 | 6.66529 | 21178 ft | 404 kts | 307° |
| 2026-05-05 11:01 | 52.38887 | 6.62930 | 20642 ft | 403 kts | 307° |
| 2026-05-05 11:01 | 52.40643 | 6.59369 | 20109 ft | 401 kts | 307° |
| 2026-05-05 11:02 | 52.42391 | 6.55819 | 19574 ft | 400 kts | 307° |
| 2026-05-05 11:02 | 52.44100 | 6.52250 | 19043 ft | 396 kts | 303° |
| 2026-05-05 11:02 | 52.45412 | 6.48316 | 18516 ft | 393 kts | 291° |
| 2026-05-05 11:02 | 52.46242 | 6.44055 | 18044 ft | 397 kts | 285° |
| 2026-05-05 11:03 | 52.46966 | 6.39668 | 17334 ft | 400 kts | 282° |
| 2026-05-05 11:03 | 52.47485 | 6.35214 | 16810 ft | 396 kts | 278° |
| 2026-05-05 11:03 | 52.47811 | 6.30760 | 16282 ft | 392 kts | 275° |
| 2026-05-05 11:03 | 52.48004 | 6.26286 | 15743 ft | 391 kts | 273° |
| 2026-05-05 11:04 | 52.48157 | 6.21852 | 15203 ft | 388 kts | 273° |
| 2026-05-05 11:04 | 52.48338 | 6.17454 | 14673 ft | 385 kts | 274° |
| 2026-05-05 11:04 | 52.48541 | 6.13093 | 14156 ft | 382 kts | 274° |
| 2026-05-05 11:04 | 52.48747 | 6.08764 | 13641 ft | 379 kts | 274° |
| 2026-05-05 11:05 | 52.48949 | 6.04467 | 13127 ft | 376 kts | 274° |
| 2026-05-05 11:05 | 52.49152 | 6.00196 | 12614 ft | 374 kts | 274° |
| 2026-05-05 11:05 | 52.49377 | 5.95966 | 12106 ft | 371 kts | 275° |
| 2026-05-05 11:05 | 52.49590 | 5.91760 | 11604 ft | 368 kts | 275° |
| 2026-05-05 11:06 | 52.49785 | 5.87582 | 11099 ft | 366 kts | 274° |
| 2026-05-05 11:06 | 52.49972 | 5.83424 | 10567 ft | 365 kts | 274° |
| 2026-05-05 11:06 | 52.50151 | 5.79329 | 10431 ft | 352 kts | 274° |
| 2026-05-05 11:06 | 52.50322 | 5.75407 | 10363 ft | 338 kts | 274° |
| 2026-05-05 11:07 | 52.50485 | 5.71634 | 10290 ft | 325 kts | 274° |
| 2026-05-05 11:07 | 52.50641 | 5.68003 | 10206 ft | 312 kts | 274° |
| 2026-05-05 11:07 | 52.50788 | 5.64611 | 10121 ft | 290 kts | 274° |
| 2026-05-05 11:07 | 52.50930 | 5.61339 | 10062 ft | 278 kts | 274° |
| 2026-05-05 11:08 | 52.50971 | 5.58263 | 9972 ft | 263 kts | 265° |
| 2026-05-05 11:08 | 52.50646 | 5.55380 | 9881 ft | 259 kts | 257° |
| 2026-05-05 11:08 | 52.50155 | 5.52502 | 9782 ft | 270 kts | 253° |
| 2026-05-05 11:08 | 52.49539 | 5.49433 | 9673 ft | 283 kts | 251° |
| 2026-05-05 11:09 | 52.48881 | 5.46396 | 9557 ft | 281 kts | 251° |
| 2026-05-05 11:09 | 52.48222 | 5.43410 | 9444 ft | 277 kts | 251° |
| 2026-05-05 11:09 | 52.47567 | 5.40434 | 9334 ft | 278 kts | 251° |
| 2026-05-05 11:09 | 52.46920 | 5.37489 | 9225 ft | 277 kts | 251° |
| 2026-05-05 11:10 | 52.46267 | 5.34516 | 9117 ft | 277 kts | 251° |
| 2026-05-05 11:10 | 52.45615 | 5.31543 | 9008 ft | 277 kts | 251° |
| 2026-05-05 11:10 | 52.44963 | 5.28572 | 8900 ft | 277 kts | 251° |
| 2026-05-05 11:10 | 52.44313 | 5.25603 | 8791 ft | 276 kts | 251° |
| 2026-05-05 11:11 | 52.43691 | 5.22629 | 8683 ft | 276 kts | 252° |
| 2026-05-05 11:11 | 52.43097 | 5.19722 | 8578 ft | 275 kts | 252° |
| 2026-05-05 11:11 | 52.42476 | 5.16767 | 8470 ft | 275 kts | 251° |
| 2026-05-05 11:11 | 52.41843 | 5.13820 | 8362 ft | 274 kts | 251° |
| 2026-05-05 11:12 | 52.41199 | 5.10869 | 8254 ft | 274 kts | 251° |
| 2026-05-05 11:12 | 52.40551 | 5.07947 | 8142 ft | 273 kts | 249° |
| 2026-05-05 11:12 | 52.39574 | 5.05294 | 7836 ft | 273 kts | 230° |
| 2026-05-05 11:12 | 52.38160 | 5.03233 | 7570 ft | 272 kts | 218° |
| 2026-05-05 11:13 | 52.36540 | 5.01648 | 7257 ft | 272 kts | 208° |
| 2026-05-05 11:13 | 52.34847 | 5.00236 | 6937 ft | 273 kts | 207° |
| 2026-05-05 11:13 | 52.33152 | 4.98865 | 6700 ft | 271 kts | 206° |
| 2026-05-05 11:13 | 52.31457 | 4.97526 | 6449 ft | 270 kts | 206° |
| 2026-05-05 11:14 | 52.29763 | 4.96197 | 6200 ft | 270 kts | 206° |
| 2026-05-05 11:14 | 52.28072 | 4.94870 | 5983 ft | 269 kts | 206° |
| 2026-05-05 11:14 | 52.26413 | 4.93570 | 5732 ft | 268 kts | 206° |
| 2026-05-05 11:14 | 52.24739 | 4.92257 | 5498 ft | 263 kts | 206° |
| 2026-05-05 11:15 | 52.23077 | 4.91086 | 5258 ft | 257 kts | 199° |
| 2026-05-05 11:15 | 52.21365 | 4.90371 | 4959 ft | 252 kts | 189° |
| 2026-05-05 11:15 | 52.19627 | 4.90064 | 4702 ft | 253 kts | 183° |
| 2026-05-05 11:15 | 52.17880 | 4.89957 | 4545 ft | 249 kts | 180° |
| 2026-05-05 11:16 | 52.16162 | 4.89871 | 4394 ft | 246 kts | 181° |
| 2026-05-05 11:16 | 52.14460 | 4.89671 | 4191 ft | 244 kts | 190° |
| 2026-05-05 11:16 | 52.12970 | 4.88451 | 3968 ft | 242 kts | 220° |
| 2026-05-05 11:16 | 52.11995 | 4.86244 | 3776 ft | 241 kts | 241° |
| 2026-05-05 11:17 | 52.11474 | 4.83757 | 3625 ft | 230 kts | 263° |
| 2026-05-05 11:17 | 52.11651 | 4.81271 | 3482 ft | 216 kts | 286° |
| 2026-05-05 11:17 | 52.12264 | 4.79141 | 3357 ft | 200 kts | 307° |
| 2026-05-05 11:17 | 52.13275 | 4.77692 | 3178 ft | 192 kts | 330° |
| 2026-05-05 11:18 | 52.14517 | 4.76969 | 3041 ft | 185 kts | 349° |
| 2026-05-05 11:18 | 52.15782 | 4.76743 | 2971 ft | 183 kts | 357° |
| 2026-05-05 11:18 | 52.17040 | 4.76673 | 2727 ft | 183 kts | 2° |
| 2026-05-05 11:18 | 52.18319 | 4.76732 | 2407 ft | 187 kts | 5° |
| 2026-05-05 11:19 | 52.19637 | 4.76857 | 2117 ft | 191 kts | 6° |
| 2026-05-05 11:19 | 52.20990 | 4.76985 | 1600 ft | 201 kts | 6° |
| 2026-05-05 11:19 | 52.22394 | 4.77116 | 1200 ft | 197 kts | 6° |
| 2026-05-05 11:19 | 52.23701 | 4.77237 | 1056 ft | 180 kts | 6° |
| 2026-05-05 11:20 | 52.24905 | 4.77349 | 838 ft | 166 kts | 6° |
| 2026-05-05 11:20 | 52.26000 | 4.77450 | 622 ft | 152 kts | 6° |
| 2026-05-05 11:20 | 52.27031 | 4.77545 | 425 ft | 146 kts | 5° |
| 2026-05-05 11:20 | 52.28043 | 4.77639 | 240 ft | 145 kts | 4° |
| 2026-05-05 11:21 | 52.29051 | 4.77732 | 62 ft | 145 kts | 5° |
| 2026-05-05 11:21 | 52.30001 | 4.77809 | 20 ft | 123 kts | 5° |
| 2026-05-05 11:21 | 52.30729 | 4.77895 | 19 ft | 87 kts | 1° |
| 2026-05-05 11:21 | 52.31181 | 4.77932 | 19 ft | 23 kts | 2° |
| 2026-05-05 11:22 | 52.31278 | 4.77937 | 19 ft | 13 kts | 1° |
| 2026-05-05 11:22 | 52.31370 | 4.77942 | 19 ft | 13 kts | 2° |
| 2026-05-05 11:22 | 52.31471 | 4.77949 | 19 ft | 22 kts | 3° |
| 2026-05-05 11:22 | 52.31581 | 4.77916 | 19 ft | 12 kts | 303° |
| 2026-05-05 11:23 | 52.31586 | 4.77782 | 19 ft | 12 kts | 266° |
| 2026-05-05 11:23 | 52.31583 | 4.77655 | 19 ft | 11 kts | 270° |
| 2026-05-05 11:23 | 52.31583 | 4.77537 | 19 ft | 10 kts | 269° |
| 2026-05-05 11:23 | 52.31580 | 4.77425 | 19 ft | 10 kts | 266° |
| 2026-05-05 11:24 | 52.31574 | 4.77320 | 19 ft | 9 kts | 265° |
| 2026-05-05 11:24 | 52.31570 | 4.77209 | 19 ft | 13 kts | 268° |
| 2026-05-05 11:24 | 52.31565 | 4.77015 | 19 ft | 22 kts | 268° |
| 2026-05-05 11:24 | 52.31555 | 4.76721 | 19 ft | 26 kts | 262° |
| 2026-05-05 11:25 | 52.31538 | 4.76478 | 19 ft | 18 kts | 265° |
| 2026-05-05 11:25 | 52.31533 | 4.76280 | 19 ft | 17 kts | 271° |
| 2026-05-05 11:25 | 52.31531 | 4.76089 | 19 ft | 16 kts | 267° |
| 2026-05-05 11:25 | 52.31524 | 4.75946 | 19 ft | 10 kts | 249° |
| 2026-05-05 11:26 | 52.31463 | 4.75915 | 19 ft | 10 kts | 175° |
| 2026-05-05 11:26 | 52.31396 | 4.75924 | 19 ft | 9 kts | 175° |
| 2026-05-05 11:26 | 52.31333 | 4.75934 | 19 ft | 9 kts | 175° |
| 2026-05-05 11:26 | 52.31273 | 4.75940 | 19 ft | 8 kts | 176° |
| 2026-05-05 11:27 | 52.31218 | 4.75953 | 19 ft | 8 kts | 150° |
| 2026-05-05 11:27 | 52.31199 | 4.76029 | 19 ft | 7 kts | 86° |
| 2026-05-05 11:27 | 52.31200 | 4.76059 | 19 ft | 0 kts | 86° |
| 2026-05-05 11:27 | 52.31200 | 4.76067 | 19 ft | 1 kts | 86° |
| 2026-05-05 11:28 | 52.31201 | 4.76079 | 19 ft | 1 kts | 87° |
| 2026-05-05 11:28 | 52.31201 | 4.76088 | 19 ft | 1 kts | 87° |
| 2026-05-05 11:28 | 52.31201 | 4.76090 | 19 ft | 0 kts | 87° |
| 2026-05-05 11:28 | 52.31201 | 4.76094 | 19 ft | 0 kts | 87° |
| 2026-05-05 11:29 | 52.31201 | 4.76095 | 19 ft | 0 kts | 87° |